<?xml version="1.0" encoding="UTF-8" standalone="no" ?>
<gpx xmlns="http://www.topografix.com/GPX/1/1" creator="www.plotaroute.com" version="1.1"  xmlns:xsi="http://www.w3.org/2001/XMLSchema-instance" xsi:schemaLocation="http://www.topografix.com/GPX/1/1 http://www.topografix.com/GPX/1/1/gpx.xsd">
<metadata>
<desc>Route created on plotaroute.com</desc>
</metadata>
<wpt lat="31.812368" lon="35.00684">
<time>2023-01-04T00:01:48Z</time>
<name>Держитесь </name>
<cmt>Держитесь левее</cmt>
<desc>Держитесь левее</desc>
<sym>Straight</sym>
</wpt>
<wpt lat="31.812123" lon="35.005337">
<time>2023-01-04T00:02:14Z</time>
<name>Поверните </name>
<cmt>Поверните налево на דרך בורמה</cmt>
<desc>Поверните налево на דרך בורמה</desc>
<sym>Left</sym>
</wpt>
<wpt lat="31.809237" lon="35.005165">
<time>2023-01-04T00:03:40Z</time>
<name>Держитесь </name>
<cmt>Держитесь правее на דרך בורמה</cmt>
<desc>Держитесь правее на דרך בורמה</desc>
<sym>Right_slight</sym>
</wpt>
<wpt lat="31.806907" lon="35.004988">
<time>2023-01-04T00:04:29Z</time>
<name>Поверните </name>
<cmt>Поверните направо на דרך בורמה</cmt>
<desc>Поверните направо на דרך בורמה</desc>
<sym>Right</sym>
</wpt>
<wpt lat="31.806665" lon="35.004503">
<time>2023-01-04T00:04:39Z</time>
<name>Поверните </name>
<cmt>Поверните налево</cmt>
<desc>Поверните налево</desc>
<sym>Left</sym>
</wpt>
<wpt lat="31.802472" lon="35.008133">
<time>2023-01-04T00:06:46Z</time>
<name>Поверните </name>
<cmt>Поверните налево</cmt>
<desc>Поверните налево</desc>
<sym>Left</sym>
</wpt>
<wpt lat="31.801877" lon="35.011466">
<time>2023-01-04T00:07:53Z</time>
<name>Сверните н</name>
<cmt>Сверните на 2-й съезд на קוצ&#39;ין</cmt>
<desc>Сверните на 2-й съезд на קוצ&#39;ין</desc>
<sym>Left_slight</sym>
</wpt>
<wpt lat="31.799304" lon="35.012233">
<time>2023-01-04T00:08:51Z</time>
<name>Сверните н</name>
<cmt>Сверните на 2-й съезд</cmt>
<desc>Сверните на 2-й съезд</desc>
<sym>Left</sym>
</wpt>
<wpt lat="31.799014" lon="35.013264">
<time>2023-01-04T00:09:12Z</time>
<name>Поверните </name>
<cmt>Поверните направо</cmt>
<desc>Поверните направо</desc>
<sym>Right</sym>
</wpt>
<wpt lat="31.798358" lon="35.013874">
<time>2023-01-04T00:09:31Z</time>
<name>Резко пове</name>
<cmt>Резко поверните направо</cmt>
<desc>Резко поверните направо</desc>
<sym>Right_sharp</sym>
</wpt>
<wpt lat="31.794181" lon="35.013867">
<time>2023-01-04T00:11:00Z</time>
<name>Держитесь </name>
<cmt>Держитесь правее</cmt>
<desc>Держитесь правее</desc>
<sym>Right_slight</sym>
</wpt>
<wpt lat="31.793088" lon="35.004551">
<time>2023-01-04T00:18:25Z</time>
<name>Поверните </name>
<cmt>Поверните налево</cmt>
<desc>Поверните налево</desc>
<sym>Left</sym>
</wpt>
<wpt lat="31.786222" lon="35.007252">
<time>2023-01-04T00:21:17Z</time>
<name>Держитесь </name>
<cmt>Держитесь правее</cmt>
<desc>Держитесь правее</desc>
<sym>Straight</sym>
</wpt>
<wpt lat="31.781971" lon="35.004524">
<time>2023-01-04T00:23:05Z</time>
<name>Держитесь </name>
<cmt>Держитесь правее</cmt>
<desc>Держитесь правее</desc>
<sym>Right_slight</sym>
</wpt>
<wpt lat="31.775933" lon="34.984136">
<time>2023-01-04T00:37:40Z</time>
<name>Резко пове</name>
<cmt>Резко поверните направо</cmt>
<desc>Резко поверните направо</desc>
<sym>Right_sharp</sym>
</wpt>
<wpt lat="31.775984" lon="34.984093">
<time>2023-01-04T00:37:42Z</time>
<name>Разверните</name>
<cmt>Развернитесь</cmt>
<desc>Развернитесь</desc>
<sym>Left_slight</sym>
</wpt>
<wpt lat="31.775933" lon="34.984136">
<time>2023-01-04T00:37:43Z</time>
<name>Поверните </name>
<cmt>Поверните направо на דרך הפסלים</cmt>
<desc>Поверните направо на דרך הפסלים</desc>
<sym>Right</sym>
</wpt>
<wpt lat="31.773642" lon="34.983851">
<time>2023-01-04T00:38:30Z</time>
<name>Плавно пов</name>
<cmt>Плавно поверните налево</cmt>
<desc>Плавно поверните налево</desc>
<sym>Left_slight</sym>
</wpt>
<wpt lat="31.773312" lon="34.983958">
<time>2023-01-04T00:38:38Z</time>
<name>Резко пове</name>
<cmt>Резко поверните направо</cmt>
<desc>Резко поверните направо</desc>
<sym>Right_sharp</sym>
</wpt>
<wpt lat="31.818809" lon="34.995698">
<time>2023-01-04T01:43:32Z</time>
<name>Поверните </name>
<cmt>Поверните налево</cmt>
<desc>Поверните налево</desc>
<sym>Left</sym>
</wpt>
<wpt lat="31.818689" lon="34.999402">
<time>2023-01-04T01:44:42Z</time>
<name>Плавно пов</name>
<cmt>Плавно поверните направо</cmt>
<desc>Плавно поверните направо</desc>
<sym>Right_slight</sym>
</wpt>
<wpt lat="31.812479" lon="35.005675">
<time>2023-01-04T01:48:01Z</time>
<name>Плавно пов</name>
<cmt>Плавно поверните налево на דרך בורמה</cmt>
<desc>Плавно поверните налево на דרך בורמה</desc>
<sym>Left_slight</sym>
</wpt>
<wpt lat="31.811496" lon="35.012965">
<time>2023-01-04T01:50:08Z</time>
<name>FINISH</name>
<cmt>FINISH</cmt>
<desc>FINISH</desc>
<sym>Flag, Blue</sym>
</wpt>
<trk>
<name>NeveShalom-Zora37km720m</name>
<trkseg>
<trkpt lat="31.811476" lon="35.013061">
<ele>291</ele>
<time>2023-01-04T00:00:00Z</time></trkpt>
<trkpt lat="31.81151" lon="35.012895">
<ele>291</ele>
<time>2023-01-04T00:00:03Z</time></trkpt>
<trkpt lat="31.811745" lon="35.012138">
<ele>290</ele>
<time>2023-01-04T00:00:17Z</time></trkpt>
<trkpt lat="31.812088" lon="35.01071">
<ele>288</ele>
<time>2023-01-04T00:00:42Z</time></trkpt>
<trkpt lat="31.812148" lon="35.010567">
<ele>287</ele>
<time>2023-01-04T00:00:45Z</time></trkpt>
<trkpt lat="31.812143" lon="35.010484">
<ele>286</ele>
<time>2023-01-04T00:00:46Z</time></trkpt>
<trkpt lat="31.812223" lon="35.009855">
<ele>283</ele>
<time>2023-01-04T00:00:57Z</time></trkpt>
<trkpt lat="31.812268" lon="35.008924">
<ele>281</ele>
<time>2023-01-04T00:01:13Z</time></trkpt>
<trkpt lat="31.812268" lon="35.008924">
<ele>281</ele>
<time>2023-01-04T00:01:13Z</time></trkpt>
<trkpt lat="31.812298" lon="35.008587">
<ele>280</ele>
<time>2023-01-04T00:01:19Z</time></trkpt>
<trkpt lat="31.812306" lon="35.008036">
<ele>278</ele>
<time>2023-01-04T00:01:28Z</time></trkpt>
<trkpt lat="31.812368" lon="35.00684">
<ele>276</ele>
<time>2023-01-04T00:01:48Z</time></trkpt>
<trkpt lat="31.812123" lon="35.005337">
<ele>273</ele>
<time>2023-01-04T00:02:14Z</time></trkpt>
<trkpt lat="31.811933" lon="35.005419">
<ele>272</ele>
<time>2023-01-04T00:02:18Z</time></trkpt>
<trkpt lat="31.811792" lon="35.00541">
<ele>271</ele>
<time>2023-01-04T00:02:21Z</time></trkpt>
<trkpt lat="31.811691" lon="35.005291">
<ele>270</ele>
<time>2023-01-04T00:02:24Z</time></trkpt>
<trkpt lat="31.811617" lon="35.005098">
<ele>269</ele>
<time>2023-01-04T00:02:28Z</time></trkpt>
<trkpt lat="31.811545" lon="35.004468">
<ele>265</ele>
<time>2023-01-04T00:02:39Z</time></trkpt>
<trkpt lat="31.811545" lon="35.004468">
<ele>265</ele>
<time>2023-01-04T00:02:39Z</time></trkpt>
<trkpt lat="31.811524" lon="35.004387">
<ele>264</ele>
<time>2023-01-04T00:02:40Z</time></trkpt>
<trkpt lat="31.811456" lon="35.004238">
<ele>263</ele>
<time>2023-01-04T00:02:43Z</time></trkpt>
<trkpt lat="31.811384" lon="35.004145">
<ele>263</ele>
<time>2023-01-04T00:02:45Z</time></trkpt>
<trkpt lat="31.811245" lon="35.004011">
<ele>263</ele>
<time>2023-01-04T00:02:49Z</time></trkpt>
<trkpt lat="31.811038" lon="35.003846">
<ele>263</ele>
<time>2023-01-04T00:02:54Z</time></trkpt>
<trkpt lat="31.810941" lon="35.003796">
<ele>263</ele>
<time>2023-01-04T00:02:56Z</time></trkpt>
<trkpt lat="31.810766" lon="35.003753">
<ele>263</ele>
<time>2023-01-04T00:02:59Z</time></trkpt>
<trkpt lat="31.810694" lon="35.003754">
<ele>263</ele>
<time>2023-01-04T00:03:01Z</time></trkpt>
<trkpt lat="31.810383" lon="35.003847">
<ele>264</ele>
<time>2023-01-04T00:03:07Z</time></trkpt>
<trkpt lat="31.810185" lon="35.003937">
<ele>265</ele>
<time>2023-01-04T00:03:11Z</time></trkpt>
<trkpt lat="31.810066" lon="35.004029">
<ele>265</ele>
<time>2023-01-04T00:03:14Z</time></trkpt>
<trkpt lat="31.809649" lon="35.004556">
<ele>271</ele>
<time>2023-01-04T00:03:27Z</time></trkpt>
<trkpt lat="31.809537" lon="35.004721">
<ele>272</ele>
<time>2023-01-04T00:03:30Z</time></trkpt>
<trkpt lat="31.809385" lon="35.005055">
<ele>275</ele>
<time>2023-01-04T00:03:37Z</time></trkpt>
<trkpt lat="31.809332" lon="35.005113">
<ele>276</ele>
<time>2023-01-04T00:03:38Z</time></trkpt>
<trkpt lat="31.809237" lon="35.005165">
<ele>276</ele>
<time>2023-01-04T00:03:40Z</time></trkpt>
<trkpt lat="31.809058" lon="35.005158">
<ele>275</ele>
<time>2023-01-04T00:03:44Z</time></trkpt>
<trkpt lat="31.808827" lon="35.005047">
<ele>273</ele>
<time>2023-01-04T00:03:49Z</time></trkpt>
<trkpt lat="31.808655" lon="35.004995">
<ele>272</ele>
<time>2023-01-04T00:03:52Z</time></trkpt>
<trkpt lat="31.808259" lon="35.00499">
<ele>271</ele>
<time>2023-01-04T00:04:00Z</time></trkpt>
<trkpt lat="31.807998" lon="35.004858">
<ele>271</ele>
<time>2023-01-04T00:04:06Z</time></trkpt>
<trkpt lat="31.807842" lon="35.004754">
<ele>271</ele>
<time>2023-01-04T00:04:10Z</time></trkpt>
<trkpt lat="31.807672" lon="35.004695">
<ele>271</ele>
<time>2023-01-04T00:04:13Z</time></trkpt>
<trkpt lat="31.807456" lon="35.004694">
<ele>272</ele>
<time>2023-01-04T00:04:17Z</time></trkpt>
<trkpt lat="31.806907" lon="35.004988">
<ele>273</ele>
<time>2023-01-04T00:04:29Z</time></trkpt>
<trkpt lat="31.806907" lon="35.004988">
<ele>273</ele>
<time>2023-01-04T00:04:29Z</time></trkpt>
<trkpt lat="31.806848" lon="35.004943">
<ele>273</ele>
<time>2023-01-04T00:04:31Z</time></trkpt>
<trkpt lat="31.806762" lon="35.004807">
<ele>275</ele>
<time>2023-01-04T00:04:34Z</time></trkpt>
<trkpt lat="31.8067" lon="35.004654">
<ele>276</ele>
<time>2023-01-04T00:04:37Z</time></trkpt>
<trkpt lat="31.806665" lon="35.004503">
<ele>278</ele>
<time>2023-01-04T00:04:39Z</time></trkpt>
<trkpt lat="31.806395" lon="35.004433">
<ele>280</ele>
<time>2023-01-04T00:04:45Z</time></trkpt>
<trkpt lat="31.805857" lon="35.004244">
<ele>287</ele>
<time>2023-01-04T00:04:56Z</time></trkpt>
<trkpt lat="31.805717" lon="35.004216">
<ele>288</ele>
<time>2023-01-04T00:04:59Z</time></trkpt>
<trkpt lat="31.80561" lon="35.004218">
<ele>288</ele>
<time>2023-01-04T00:05:01Z</time></trkpt>
<trkpt lat="31.80547" lon="35.00425">
<ele>288</ele>
<time>2023-01-04T00:05:04Z</time></trkpt>
<trkpt lat="31.805116" lon="35.004364">
<ele>288</ele>
<time>2023-01-04T00:05:11Z</time></trkpt>
<trkpt lat="31.80497" lon="35.004448">
<ele>288</ele>
<time>2023-01-04T00:05:15Z</time></trkpt>
<trkpt lat="31.804886" lon="35.004574">
<ele>287</ele>
<time>2023-01-04T00:05:17Z</time></trkpt>
<trkpt lat="31.804857" lon="35.004674">
<ele>287</ele>
<time>2023-01-04T00:05:19Z</time></trkpt>
<trkpt lat="31.804849" lon="35.00481">
<ele>286</ele>
<time>2023-01-04T00:05:21Z</time></trkpt>
<trkpt lat="31.8049" lon="35.005194">
<ele>283</ele>
<time>2023-01-04T00:05:28Z</time></trkpt>
<trkpt lat="31.804898" lon="35.005413">
<ele>284</ele>
<time>2023-01-04T00:05:32Z</time></trkpt>
<trkpt lat="31.80492" lon="35.005695">
<ele>283</ele>
<time>2023-01-04T00:05:37Z</time></trkpt>
<trkpt lat="31.804905" lon="35.005963">
<ele>283</ele>
<time>2023-01-04T00:05:41Z</time></trkpt>
<trkpt lat="31.80488" lon="35.006136">
<ele>284</ele>
<time>2023-01-04T00:05:44Z</time></trkpt>
<trkpt lat="31.804776" lon="35.006443">
<ele>285</ele>
<time>2023-01-04T00:05:50Z</time></trkpt>
<trkpt lat="31.804592" lon="35.006767">
<ele>287</ele>
<time>2023-01-04T00:05:56Z</time></trkpt>
<trkpt lat="31.804592" lon="35.006767">
<ele>287</ele>
<time>2023-01-04T00:05:56Z</time></trkpt>
<trkpt lat="31.804271" lon="35.007166">
<ele>287</ele>
<time>2023-01-04T00:06:06Z</time></trkpt>
<trkpt lat="31.804115" lon="35.007326">
<ele>286</ele>
<time>2023-01-04T00:06:10Z</time></trkpt>
<trkpt lat="31.803659" lon="35.007658">
<ele>289</ele>
<time>2023-01-04T00:06:21Z</time></trkpt>
<trkpt lat="31.802472" lon="35.008133">
<ele>293</ele>
<time>2023-01-04T00:06:46Z</time></trkpt>
<trkpt lat="31.802621" lon="35.008863">
<ele>290</ele>
<time>2023-01-04T00:06:59Z</time></trkpt>
<trkpt lat="31.802659" lon="35.009221">
<ele>291</ele>
<time>2023-01-04T00:07:05Z</time></trkpt>
<trkpt lat="31.802639" lon="35.009856">
<ele>292</ele>
<time>2023-01-04T00:07:16Z</time></trkpt>
<trkpt lat="31.802647" lon="35.009971">
<ele>292</ele>
<time>2023-01-04T00:07:18Z</time></trkpt>
<trkpt lat="31.802735" lon="35.010357">
<ele>292</ele>
<time>2023-01-04T00:07:24Z</time></trkpt>
<trkpt lat="31.802741" lon="35.010445">
<ele>292</ele>
<time>2023-01-04T00:07:26Z</time></trkpt>
<trkpt lat="31.802725" lon="35.010555">
<ele>291</ele>
<time>2023-01-04T00:07:28Z</time></trkpt>
<trkpt lat="31.802681" lon="35.010666">
<ele>291</ele>
<time>2023-01-04T00:07:30Z</time></trkpt>
<trkpt lat="31.802385" lon="35.011165">
<ele>293</ele>
<time>2023-01-04T00:07:40Z</time></trkpt>
<trkpt lat="31.802385" lon="35.011165">
<ele>293</ele>
<time>2023-01-04T00:07:40Z</time></trkpt>
<trkpt lat="31.802289" lon="35.011297">
<ele>294</ele>
<time>2023-01-04T00:07:43Z</time></trkpt>
<trkpt lat="31.802126" lon="35.01144">
<ele>295</ele>
<time>2023-01-04T00:07:47Z</time></trkpt>
<trkpt lat="31.801986" lon="35.011506">
<ele>296</ele>
<time>2023-01-04T00:07:50Z</time></trkpt>
<trkpt lat="31.801919" lon="35.011493">
<ele>297</ele>
<time>2023-01-04T00:07:52Z</time></trkpt>
<trkpt lat="31.801877" lon="35.011466">
<ele>298</ele>
<time>2023-01-04T00:07:53Z</time></trkpt>
<trkpt lat="31.801858" lon="35.011435">
<ele>298</ele>
<time>2023-01-04T00:07:53Z</time></trkpt>
<trkpt lat="31.8018" lon="35.0114">
<ele>299</ele>
<time>2023-01-04T00:07:54Z</time></trkpt>
<trkpt lat="31.801734" lon="35.011413">
<ele>300</ele>
<time>2023-01-04T00:07:56Z</time></trkpt>
<trkpt lat="31.801683" lon="35.011484">
<ele>300</ele>
<time>2023-01-04T00:07:57Z</time></trkpt>
<trkpt lat="31.801683" lon="35.011562">
<ele>299</ele>
<time>2023-01-04T00:07:59Z</time></trkpt>
<trkpt lat="31.801688" lon="35.011655">
<ele>298</ele>
<time>2023-01-04T00:08:00Z</time></trkpt>
<trkpt lat="31.801657" lon="35.011765">
<ele>298</ele>
<time>2023-01-04T00:08:02Z</time></trkpt>
<trkpt lat="31.801566" lon="35.011869">
<ele>298</ele>
<time>2023-01-04T00:08:05Z</time></trkpt>
<trkpt lat="31.801395" lon="35.012">
<ele>298</ele>
<time>2023-01-04T00:08:09Z</time></trkpt>
<trkpt lat="31.801133" lon="35.012112">
<ele>299</ele>
<time>2023-01-04T00:08:15Z</time></trkpt>
<trkpt lat="31.800939" lon="35.012156">
<ele>300</ele>
<time>2023-01-04T00:08:18Z</time></trkpt>
<trkpt lat="31.799483" lon="35.012294">
<ele>307</ele>
<time>2023-01-04T00:08:48Z</time></trkpt>
<trkpt lat="31.799304" lon="35.012233">
<ele>309</ele>
<time>2023-01-04T00:08:51Z</time></trkpt>
<trkpt lat="31.799258" lon="35.01222">
<ele>310</ele>
<time>2023-01-04T00:08:52Z</time></trkpt>
<trkpt lat="31.799213" lon="35.012233">
<ele>310</ele>
<time>2023-01-04T00:08:53Z</time></trkpt>
<trkpt lat="31.799164" lon="35.0123">
<ele>309</ele>
<time>2023-01-04T00:08:55Z</time></trkpt>
<trkpt lat="31.799171" lon="35.012489">
<ele>307</ele>
<time>2023-01-04T00:08:58Z</time></trkpt>
<trkpt lat="31.799148" lon="35.012646">
<ele>307</ele>
<time>2023-01-04T00:09:01Z</time></trkpt>
<trkpt lat="31.799014" lon="35.013264">
<ele>307</ele>
<time>2023-01-04T00:09:12Z</time></trkpt>
<trkpt lat="31.798863" lon="35.01322">
<ele>310</ele>
<time>2023-01-04T00:09:15Z</time></trkpt>
<trkpt lat="31.798753" lon="35.013219">
<ele>311</ele>
<time>2023-01-04T00:09:17Z</time></trkpt>
<trkpt lat="31.798644" lon="35.013255">
<ele>313</ele>
<time>2023-01-04T00:09:19Z</time></trkpt>
<trkpt lat="31.798594" lon="35.013292">
<ele>314</ele>
<time>2023-01-04T00:09:20Z</time></trkpt>
<trkpt lat="31.798514" lon="35.013413">
<ele>315</ele>
<time>2023-01-04T00:09:23Z</time></trkpt>
<trkpt lat="31.798358" lon="35.013874">
<ele>315</ele>
<time>2023-01-04T00:09:31Z</time></trkpt>
<trkpt lat="31.798178" lon="35.013693">
<ele>319</ele>
<time>2023-01-04T00:09:36Z</time></trkpt>
<trkpt lat="31.798178" lon="35.013693">
<ele>319</ele>
<time>2023-01-04T00:09:36Z</time></trkpt>
<trkpt lat="31.797994" lon="35.01392">
<ele>320</ele>
<time>2023-01-04T00:09:42Z</time></trkpt>
<trkpt lat="31.797667" lon="35.014083">
<ele>323</ele>
<time>2023-01-04T00:09:49Z</time></trkpt>
<trkpt lat="31.797014" lon="35.014299">
<ele>328</ele>
<time>2023-01-04T00:10:02Z</time></trkpt>
<trkpt lat="31.796741" lon="35.014327">
<ele>330</ele>
<time>2023-01-04T00:10:08Z</time></trkpt>
<trkpt lat="31.796411" lon="35.014311">
<ele>333</ele>
<time>2023-01-04T00:10:14Z</time></trkpt>
<trkpt lat="31.796017" lon="35.014236">
<ele>336</ele>
<time>2023-01-04T00:10:22Z</time></trkpt>
<trkpt lat="31.79593" lon="35.014254">
<ele>336</ele>
<time>2023-01-04T00:10:24Z</time></trkpt>
<trkpt lat="31.794565" lon="35.013997">
<ele>346</ele>
<time>2023-01-04T00:10:52Z</time></trkpt>
<trkpt lat="31.794181" lon="35.013867">
<ele>348</ele>
<time>2023-01-04T00:11:00Z</time></trkpt>
<trkpt lat="31.794037" lon="35.013679">
<ele>348</ele>
<time>2023-01-04T00:11:04Z</time></trkpt>
<trkpt lat="31.793838" lon="35.013165">
<ele>351</ele>
<time>2023-01-04T00:11:14Z</time></trkpt>
<trkpt lat="31.793405" lon="35.012558">
<ele>353</ele>
<time>2023-01-04T00:11:27Z</time></trkpt>
<trkpt lat="31.793193" lon="35.01204">
<ele>353</ele>
<time>2023-01-04T00:11:37Z</time></trkpt>
<trkpt lat="31.792916" lon="35.011647">
<ele>355</ele>
<time>2023-01-04T00:11:46Z</time></trkpt>
<trkpt lat="31.792742" lon="35.01128">
<ele>357</ele>
<time>2023-01-04T00:11:53Z</time></trkpt>
<trkpt lat="31.792428" lon="35.010866">
<ele>361</ele>
<time>2023-01-04T00:12:02Z</time></trkpt>
<trkpt lat="31.792168" lon="35.010746">
<ele>362</ele>
<time>2023-01-04T00:12:08Z</time></trkpt>
<trkpt lat="31.791948" lon="35.0107">
<ele>363</ele>
<time>2023-01-04T00:12:12Z</time></trkpt>
<trkpt lat="31.791221" lon="35.010464">
<ele>366</ele>
<time>2023-01-04T00:12:28Z</time></trkpt>
<trkpt lat="31.790507" lon="35.010291">
<ele>370</ele>
<time>2023-01-04T00:12:42Z</time></trkpt>
<trkpt lat="31.790251" lon="35.010259">
<ele>372</ele>
<time>2023-01-04T00:12:47Z</time></trkpt>
<trkpt lat="31.790148" lon="35.010282">
<ele>371</ele>
<time>2023-01-04T00:12:49Z</time></trkpt>
<trkpt lat="31.789941" lon="35.010395">
<ele>369</ele>
<time>2023-01-04T00:12:54Z</time></trkpt>
<trkpt lat="31.789752" lon="35.010526">
<ele>367</ele>
<time>2023-01-04T00:12:58Z</time></trkpt>
<trkpt lat="31.789453" lon="35.010605">
<ele>365</ele>
<time>2023-01-04T00:13:05Z</time></trkpt>
<trkpt lat="31.788979" lon="35.010524">
<ele>369</ele>
<time>2023-01-04T00:13:14Z</time></trkpt>
<trkpt lat="31.788795" lon="35.010457">
<ele>371</ele>
<time>2023-01-04T00:13:18Z</time></trkpt>
<trkpt lat="31.788653" lon="35.01044">
<ele>372</ele>
<time>2023-01-04T00:13:21Z</time></trkpt>
<trkpt lat="31.787645" lon="35.010539">
<ele>371</ele>
<time>2023-01-04T00:13:41Z</time></trkpt>
<trkpt lat="31.787067" lon="35.010513">
<ele>371</ele>
<time>2023-01-04T00:13:53Z</time></trkpt>
<trkpt lat="31.786774" lon="35.010539">
<ele>370</ele>
<time>2023-01-04T00:13:59Z</time></trkpt>
<trkpt lat="31.786774" lon="35.010539">
<ele>370</ele>
<time>2023-01-04T00:13:59Z</time></trkpt>
<trkpt lat="31.786553" lon="35.010619">
<ele>370</ele>
<time>2023-01-04T00:14:03Z</time></trkpt>
<trkpt lat="31.786331" lon="35.010785">
<ele>370</ele>
<time>2023-01-04T00:14:09Z</time></trkpt>
<trkpt lat="31.786075" lon="35.011048">
<ele>367</ele>
<time>2023-01-04T00:14:15Z</time></trkpt>
<trkpt lat="31.785918" lon="35.011186">
<ele>366</ele>
<time>2023-01-04T00:14:19Z</time></trkpt>
<trkpt lat="31.785744" lon="35.011293">
<ele>363</ele>
<time>2023-01-04T00:14:23Z</time></trkpt>
<trkpt lat="31.785524" lon="35.011366">
<ele>360</ele>
<time>2023-01-04T00:14:28Z</time></trkpt>
<trkpt lat="31.785455" lon="35.011367">
<ele>360</ele>
<time>2023-01-04T00:14:29Z</time></trkpt>
<trkpt lat="31.785273" lon="35.011321">
<ele>359</ele>
<time>2023-01-04T00:14:33Z</time></trkpt>
<trkpt lat="31.785119" lon="35.011241">
<ele>360</ele>
<time>2023-01-04T00:14:36Z</time></trkpt>
<trkpt lat="31.785013" lon="35.011131">
<ele>361</ele>
<time>2023-01-04T00:14:39Z</time></trkpt>
<trkpt lat="31.784956" lon="35.011008">
<ele>362</ele>
<time>2023-01-04T00:14:41Z</time></trkpt>
<trkpt lat="31.784899" lon="35.010793">
<ele>364</ele>
<time>2023-01-04T00:14:45Z</time></trkpt>
<trkpt lat="31.784894" lon="35.010689">
<ele>364</ele>
<time>2023-01-04T00:14:47Z</time></trkpt>
<trkpt lat="31.78494" lon="35.010013">
<ele>369</ele>
<time>2023-01-04T00:14:59Z</time></trkpt>
<trkpt lat="31.784986" lon="35.009676">
<ele>367</ele>
<time>2023-01-04T00:15:04Z</time></trkpt>
<trkpt lat="31.785017" lon="35.009557">
<ele>366</ele>
<time>2023-01-04T00:15:07Z</time></trkpt>
<trkpt lat="31.785146" lon="35.009295">
<ele>365</ele>
<time>2023-01-04T00:15:12Z</time></trkpt>
<trkpt lat="31.785208" lon="35.009219">
<ele>365</ele>
<time>2023-01-04T00:15:14Z</time></trkpt>
<trkpt lat="31.785337" lon="35.009109">
<ele>365</ele>
<time>2023-01-04T00:15:17Z</time></trkpt>
<trkpt lat="31.785504" lon="35.009007">
<ele>364</ele>
<time>2023-01-04T00:15:20Z</time></trkpt>
<trkpt lat="31.785665" lon="35.008943">
<ele>364</ele>
<time>2023-01-04T00:15:24Z</time></trkpt>
<trkpt lat="31.785954" lon="35.008888">
<ele>364</ele>
<time>2023-01-04T00:15:30Z</time></trkpt>
<trkpt lat="31.786361" lon="35.008934">
<ele>368</ele>
<time>2023-01-04T00:15:38Z</time></trkpt>
<trkpt lat="31.786896" lon="35.009033">
<ele>372</ele>
<time>2023-01-04T00:15:49Z</time></trkpt>
<trkpt lat="31.78728" lon="35.009129">
<ele>375</ele>
<time>2023-01-04T00:15:57Z</time></trkpt>
<trkpt lat="31.78728" lon="35.009129">
<ele>375</ele>
<time>2023-01-04T00:15:57Z</time></trkpt>
<trkpt lat="31.787492" lon="35.009156">
<ele>376</ele>
<time>2023-01-04T00:16:01Z</time></trkpt>
<trkpt lat="31.787624" lon="35.00915">
<ele>377</ele>
<time>2023-01-04T00:16:04Z</time></trkpt>
<trkpt lat="31.787753" lon="35.009116">
<ele>377</ele>
<time>2023-01-04T00:16:06Z</time></trkpt>
<trkpt lat="31.788091" lon="35.008985">
<ele>378</ele>
<time>2023-01-04T00:16:13Z</time></trkpt>
<trkpt lat="31.788523" lon="35.008908">
<ele>380</ele>
<time>2023-01-04T00:16:22Z</time></trkpt>
<trkpt lat="31.788688" lon="35.00886">
<ele>380</ele>
<time>2023-01-04T00:16:26Z</time></trkpt>
<trkpt lat="31.789094" lon="35.008699">
<ele>381</ele>
<time>2023-01-04T00:16:34Z</time></trkpt>
<trkpt lat="31.789501" lon="35.008578">
<ele>383</ele>
<time>2023-01-04T00:16:43Z</time></trkpt>
<trkpt lat="31.789782" lon="35.008457">
<ele>385</ele>
<time>2023-01-04T00:16:49Z</time></trkpt>
<trkpt lat="31.7899" lon="35.008362">
<ele>386</ele>
<time>2023-01-04T00:16:51Z</time></trkpt>
<trkpt lat="31.790044" lon="35.008176">
<ele>387</ele>
<time>2023-01-04T00:16:56Z</time></trkpt>
<trkpt lat="31.790237" lon="35.007885">
<ele>386</ele>
<time>2023-01-04T00:17:02Z</time></trkpt>
<trkpt lat="31.790559" lon="35.00735">
<ele>389</ele>
<time>2023-01-04T00:17:13Z</time></trkpt>
<trkpt lat="31.790729" lon="35.007198">
<ele>391</ele>
<time>2023-01-04T00:17:17Z</time></trkpt>
<trkpt lat="31.791083" lon="35.006954">
<ele>392</ele>
<time>2023-01-04T00:17:26Z</time></trkpt>
<trkpt lat="31.792717" lon="35.005406">
<ele>392</ele>
<time>2023-01-04T00:18:08Z</time></trkpt>
<trkpt lat="31.792926" lon="35.005176">
<ele>392</ele>
<time>2023-01-04T00:18:13Z</time></trkpt>
<trkpt lat="31.7930351" lon="35.0047553">
<ele>392</ele>
<time>2023-01-04T00:18:21Z</time></trkpt>
<trkpt lat="31.793088" lon="35.004551">
<ele>392</ele>
<time>2023-01-04T00:18:25Z</time></trkpt>
<trkpt lat="31.792944" lon="35.004465">
<ele>391</ele>
<time>2023-01-04T00:18:28Z</time></trkpt>
<trkpt lat="31.792791" lon="35.004419">
<ele>389</ele>
<time>2023-01-04T00:18:31Z</time></trkpt>
<trkpt lat="31.79189" lon="35.004366">
<ele>380</ele>
<time>2023-01-04T00:18:49Z</time></trkpt>
<trkpt lat="31.790069" lon="35.004065">
<ele>364</ele>
<time>2023-01-04T00:19:26Z</time></trkpt>
<trkpt lat="31.78941" lon="35.004012">
<ele>355</ele>
<time>2023-01-04T00:19:39Z</time></trkpt>
<trkpt lat="31.789141" lon="35.004017">
<ele>352</ele>
<time>2023-01-04T00:19:44Z</time></trkpt>
<trkpt lat="31.788905" lon="35.00408">
<ele>349</ele>
<time>2023-01-04T00:19:49Z</time></trkpt>
<trkpt lat="31.788797" lon="35.004151">
<ele>348</ele>
<time>2023-01-04T00:19:52Z</time></trkpt>
<trkpt lat="31.788682" lon="35.004269">
<ele>348</ele>
<time>2023-01-04T00:19:55Z</time></trkpt>
<trkpt lat="31.787819" lon="35.00546">
<ele>340</ele>
<time>2023-01-04T00:20:22Z</time></trkpt>
<trkpt lat="31.787579" lon="35.005903">
<ele>337</ele>
<time>2023-01-04T00:20:30Z</time></trkpt>
<trkpt lat="31.787473" lon="35.006237">
<ele>335</ele>
<time>2023-01-04T00:20:37Z</time></trkpt>
<trkpt lat="31.787391" lon="35.006576">
<ele>333</ele>
<time>2023-01-04T00:20:43Z</time></trkpt>
<trkpt lat="31.78735" lon="35.007033">
<ele>335</ele>
<time>2023-01-04T00:20:50Z</time></trkpt>
<trkpt lat="31.78731" lon="35.007206">
<ele>336</ele>
<time>2023-01-04T00:20:53Z</time></trkpt>
<trkpt lat="31.787262" lon="35.007285">
<ele>336</ele>
<time>2023-01-04T00:20:55Z</time></trkpt>
<trkpt lat="31.787109" lon="35.007413">
<ele>335</ele>
<time>2023-01-04T00:20:59Z</time></trkpt>
<trkpt lat="31.786998" lon="35.007439">
<ele>335</ele>
<time>2023-01-04T00:21:01Z</time></trkpt>
<trkpt lat="31.786804" lon="35.007418">
<ele>333</ele>
<time>2023-01-04T00:21:05Z</time></trkpt>
<trkpt lat="31.786531" lon="35.00734">
<ele>329</ele>
<time>2023-01-04T00:21:11Z</time></trkpt>
<trkpt lat="31.786222" lon="35.007252">
<ele>324</ele>
<time>2023-01-04T00:21:17Z</time></trkpt>
<trkpt lat="31.786072" lon="35.007219">
<ele>322</ele>
<time>2023-01-04T00:21:20Z</time></trkpt>
<trkpt lat="31.785816" lon="35.007123">
<ele>318</ele>
<time>2023-01-04T00:21:25Z</time></trkpt>
<trkpt lat="31.785677" lon="35.007032">
<ele>317</ele>
<time>2023-01-04T00:21:29Z</time></trkpt>
<trkpt lat="31.785557" lon="35.006864">
<ele>314</ele>
<time>2023-01-04T00:21:32Z</time></trkpt>
<trkpt lat="31.785509" lon="35.006753">
<ele>313</ele>
<time>2023-01-04T00:21:34Z</time></trkpt>
<trkpt lat="31.785435" lon="35.006517">
<ele>310</ele>
<time>2023-01-04T00:21:39Z</time></trkpt>
<trkpt lat="31.785392" lon="35.006277">
<ele>307</ele>
<time>2023-01-04T00:21:43Z</time></trkpt>
<trkpt lat="31.785319" lon="35.006087">
<ele>305</ele>
<time>2023-01-04T00:21:46Z</time></trkpt>
<trkpt lat="31.785083" lon="35.0058">
<ele>302</ele>
<time>2023-01-04T00:21:53Z</time></trkpt>
<trkpt lat="31.784871" lon="35.005594">
<ele>299</ele>
<time>2023-01-04T00:21:59Z</time></trkpt>
<trkpt lat="31.784766" lon="35.005515">
<ele>298</ele>
<time>2023-01-04T00:22:01Z</time></trkpt>
<trkpt lat="31.784387" lon="35.00528">
<ele>294</ele>
<time>2023-01-04T00:22:10Z</time></trkpt>
<trkpt lat="31.783548" lon="35.004932">
<ele>285</ele>
<time>2023-01-04T00:22:28Z</time></trkpt>
<trkpt lat="31.78346" lon="35.004931">
<ele>285</ele>
<time>2023-01-04T00:22:29Z</time></trkpt>
<trkpt lat="31.783201" lon="35.005044">
<ele>285</ele>
<time>2023-01-04T00:22:35Z</time></trkpt>
<trkpt lat="31.783038" lon="35.005197">
<ele>286</ele>
<time>2023-01-04T00:22:39Z</time></trkpt>
<trkpt lat="31.782924" lon="35.005246">
<ele>286</ele>
<time>2023-01-04T00:22:42Z</time></trkpt>
<trkpt lat="31.782836" lon="35.005257">
<ele>286</ele>
<time>2023-01-04T00:22:43Z</time></trkpt>
<trkpt lat="31.782767" lon="35.00524">
<ele>285</ele>
<time>2023-01-04T00:22:45Z</time></trkpt>
<trkpt lat="31.782662" lon="35.005152">
<ele>282</ele>
<time>2023-01-04T00:22:47Z</time></trkpt>
<trkpt lat="31.782391" lon="35.004817">
<ele>276</ele>
<time>2023-01-04T00:22:55Z</time></trkpt>
<trkpt lat="31.78229" lon="35.004731">
<ele>275</ele>
<time>2023-01-04T00:22:58Z</time></trkpt>
<trkpt lat="31.781971" lon="35.004524">
<ele>271</ele>
<time>2023-01-04T00:23:05Z</time></trkpt>
<trkpt lat="31.781878" lon="35.004377">
<ele>269</ele>
<time>2023-01-04T00:23:08Z</time></trkpt>
<trkpt lat="31.781831" lon="35.004271">
<ele>268</ele>
<time>2023-01-04T00:23:10Z</time></trkpt>
<trkpt lat="31.781717" lon="35.003628">
<ele>267</ele>
<time>2023-01-04T00:23:21Z</time></trkpt>
<trkpt lat="31.781521" lon="35.002942">
<ele>266</ele>
<time>2023-01-04T00:23:34Z</time></trkpt>
<trkpt lat="31.781393" lon="35.002319">
<ele>267</ele>
<time>2023-01-04T00:23:45Z</time></trkpt>
<trkpt lat="31.7813403" lon="35.0022017">
<ele>268</ele>
<time>2023-01-04T00:23:47Z</time></trkpt>
<trkpt lat="31.78122" lon="35.00194">
<ele>270</ele>
<time>2023-01-04T00:23:52Z</time></trkpt>
<trkpt lat="31.7813669" lon="35.0015563">
<ele>270</ele>
<time>2023-01-04T00:23:59Z</time></trkpt>
<trkpt lat="31.7814626" lon="35.0009769">
<ele>269</ele>
<time>2023-01-04T00:24:09Z</time></trkpt>
<trkpt lat="31.78139" lon="35.00089">
<ele>270</ele>
<time>2023-01-04T00:24:11Z</time></trkpt>
<trkpt lat="31.7816639" lon="35.0002262">
<ele>270</ele>
<time>2023-01-04T00:24:24Z</time></trkpt>
<trkpt lat="31.7820646" lon="34.9998021">
<ele>273</ele>
<time>2023-01-04T00:24:35Z</time></trkpt>
<trkpt lat="31.7835101" lon="34.9991316">
<ele>285</ele>
<time>2023-01-04T00:25:06Z</time></trkpt>
<trkpt lat="31.7845362" lon="34.9991474">
<ele>295</ele>
<time>2023-01-04T00:25:26Z</time></trkpt>
<trkpt lat="31.78456" lon="34.99917">
<ele>295</ele>
<time>2023-01-04T00:25:27Z</time></trkpt>
<trkpt lat="31.78491" lon="34.99916">
<ele>298</ele>
<time>2023-01-04T00:25:34Z</time></trkpt>
<trkpt lat="31.7852" lon="34.99918">
<ele>300</ele>
<time>2023-01-04T00:25:40Z</time></trkpt>
<trkpt lat="31.78535" lon="34.99916">
<ele>300</ele>
<time>2023-01-04T00:25:43Z</time></trkpt>
<trkpt lat="31.78545" lon="34.9991">
<ele>301</ele>
<time>2023-01-04T00:25:45Z</time></trkpt>
<trkpt lat="31.78557" lon="34.999">
<ele>303</ele>
<time>2023-01-04T00:25:48Z</time></trkpt>
<trkpt lat="31.78572" lon="34.99882">
<ele>306</ele>
<time>2023-01-04T00:25:52Z</time></trkpt>
<trkpt lat="31.78581" lon="34.99874">
<ele>308</ele>
<time>2023-01-04T00:25:55Z</time></trkpt>
<trkpt lat="31.78617" lon="34.99857">
<ele>310</ele>
<time>2023-01-04T00:26:02Z</time></trkpt>
<trkpt lat="31.78638" lon="34.99833">
<ele>313</ele>
<time>2023-01-04T00:26:08Z</time></trkpt>
<trkpt lat="31.7865" lon="34.99832">
<ele>313</ele>
<time>2023-01-04T00:26:11Z</time></trkpt>
<trkpt lat="31.78684" lon="34.99806">
<ele>318</ele>
<time>2023-01-04T00:26:19Z</time></trkpt>
<trkpt lat="31.78708" lon="34.99738">
<ele>324</ele>
<time>2023-01-04T00:26:31Z</time></trkpt>
<trkpt lat="31.78706" lon="34.99701">
<ele>326</ele>
<time>2023-01-04T00:26:38Z</time></trkpt>
<trkpt lat="31.78697" lon="34.99638">
<ele>329</ele>
<time>2023-01-04T00:26:48Z</time></trkpt>
<trkpt lat="31.78703" lon="34.99626">
<ele>330</ele>
<time>2023-01-04T00:26:51Z</time></trkpt>
<trkpt lat="31.78684" lon="34.99616">
<ele>330</ele>
<time>2023-01-04T00:26:55Z</time></trkpt>
<trkpt lat="31.78676" lon="34.99617">
<ele>330</ele>
<time>2023-01-04T00:26:57Z</time></trkpt>
<trkpt lat="31.78648" lon="34.99629">
<ele>331</ele>
<time>2023-01-04T00:27:03Z</time></trkpt>
<trkpt lat="31.78608" lon="34.99631">
<ele>335</ele>
<time>2023-01-04T00:27:11Z</time></trkpt>
<trkpt lat="31.78607" lon="34.99626">
<ele>335</ele>
<time>2023-01-04T00:27:12Z</time></trkpt>
<trkpt lat="31.78609" lon="34.99613">
<ele>336</ele>
<time>2023-01-04T00:27:14Z</time></trkpt>
<trkpt lat="31.78613" lon="34.99602">
<ele>336</ele>
<time>2023-01-04T00:27:16Z</time></trkpt>
<trkpt lat="31.78629" lon="34.99578">
<ele>336</ele>
<time>2023-01-04T00:27:21Z</time></trkpt>
<trkpt lat="31.7865" lon="34.99551">
<ele>336</ele>
<time>2023-01-04T00:27:27Z</time></trkpt>
<trkpt lat="31.78673" lon="34.99527">
<ele>335</ele>
<time>2023-01-04T00:27:33Z</time></trkpt>
<trkpt lat="31.78687" lon="34.99516">
<ele>335</ele>
<time>2023-01-04T00:27:37Z</time></trkpt>
<trkpt lat="31.78697" lon="34.99512">
<ele>335</ele>
<time>2023-01-04T00:27:39Z</time></trkpt>
<trkpt lat="31.78705" lon="34.99505">
<ele>334</ele>
<time>2023-01-04T00:27:41Z</time></trkpt>
<trkpt lat="31.78713" lon="34.99493">
<ele>333</ele>
<time>2023-01-04T00:27:43Z</time></trkpt>
<trkpt lat="31.78716" lon="34.99481">
<ele>333</ele>
<time>2023-01-04T00:27:46Z</time></trkpt>
<trkpt lat="31.78719" lon="34.99424">
<ele>332</ele>
<time>2023-01-04T00:27:55Z</time></trkpt>
<trkpt lat="31.78725" lon="34.99385">
<ele>330</ele>
<time>2023-01-04T00:28:02Z</time></trkpt>
<trkpt lat="31.78716" lon="34.99341">
<ele>331</ele>
<time>2023-01-04T00:28:10Z</time></trkpt>
<trkpt lat="31.78717" lon="34.99336">
<ele>331</ele>
<time>2023-01-04T00:28:11Z</time></trkpt>
<trkpt lat="31.78731" lon="34.99317">
<ele>329</ele>
<time>2023-01-04T00:28:15Z</time></trkpt>
<trkpt lat="31.78735" lon="34.99307">
<ele>329</ele>
<time>2023-01-04T00:28:17Z</time></trkpt>
<trkpt lat="31.78737" lon="34.99296">
<ele>329</ele>
<time>2023-01-04T00:28:19Z</time></trkpt>
<trkpt lat="31.78737" lon="34.99283">
<ele>329</ele>
<time>2023-01-04T00:28:21Z</time></trkpt>
<trkpt lat="31.78734" lon="34.99266">
<ele>330</ele>
<time>2023-01-04T00:28:24Z</time></trkpt>
<trkpt lat="31.78723" lon="34.99238">
<ele>333</ele>
<time>2023-01-04T00:28:29Z</time></trkpt>
<trkpt lat="31.78718" lon="34.99219">
<ele>334</ele>
<time>2023-01-04T00:28:33Z</time></trkpt>
<trkpt lat="31.78721" lon="34.99192">
<ele>334</ele>
<time>2023-01-04T00:28:37Z</time></trkpt>
<trkpt lat="31.7872" lon="34.99168">
<ele>335</ele>
<time>2023-01-04T00:28:41Z</time></trkpt>
<trkpt lat="31.78722" lon="34.99124">
<ele>337</ele>
<time>2023-01-04T00:28:49Z</time></trkpt>
<trkpt lat="31.7872" lon="34.99085">
<ele>339</ele>
<time>2023-01-04T00:28:55Z</time></trkpt>
<trkpt lat="31.78723" lon="34.99068">
<ele>339</ele>
<time>2023-01-04T00:28:58Z</time></trkpt>
<trkpt lat="31.78734" lon="34.99034">
<ele>338</ele>
<time>2023-01-04T00:29:05Z</time></trkpt>
<trkpt lat="31.78755" lon="34.99001">
<ele>337</ele>
<time>2023-01-04T00:29:12Z</time></trkpt>
<trkpt lat="31.78759" lon="34.98987">
<ele>336</ele>
<time>2023-01-04T00:29:14Z</time></trkpt>
<trkpt lat="31.7876" lon="34.98976">
<ele>336</ele>
<time>2023-01-04T00:29:16Z</time></trkpt>
<trkpt lat="31.78759" lon="34.98961">
<ele>336</ele>
<time>2023-01-04T00:29:19Z</time></trkpt>
<trkpt lat="31.7875" lon="34.98909">
<ele>338</ele>
<time>2023-01-04T00:29:28Z</time></trkpt>
<trkpt lat="31.78742" lon="34.98866">
<ele>338</ele>
<time>2023-01-04T00:29:35Z</time></trkpt>
<trkpt lat="31.78731" lon="34.98839">
<ele>338</ele>
<time>2023-01-04T00:29:40Z</time></trkpt>
<trkpt lat="31.78729" lon="34.98828">
<ele>338</ele>
<time>2023-01-04T00:29:42Z</time></trkpt>
<trkpt lat="31.78729" lon="34.98817">
<ele>338</ele>
<time>2023-01-04T00:29:44Z</time></trkpt>
<trkpt lat="31.78745" lon="34.98763">
<ele>337</ele>
<time>2023-01-04T00:29:54Z</time></trkpt>
<trkpt lat="31.78747" lon="34.98741">
<ele>337</ele>
<time>2023-01-04T00:29:58Z</time></trkpt>
<trkpt lat="31.78745" lon="34.98729">
<ele>336</ele>
<time>2023-01-04T00:30:00Z</time></trkpt>
<trkpt lat="31.7874" lon="34.98711">
<ele>336</ele>
<time>2023-01-04T00:30:03Z</time></trkpt>
<trkpt lat="31.78727" lon="34.98688">
<ele>335</ele>
<time>2023-01-04T00:30:08Z</time></trkpt>
<trkpt lat="31.78719" lon="34.9868">
<ele>335</ele>
<time>2023-01-04T00:30:10Z</time></trkpt>
<trkpt lat="31.78672" lon="34.98658">
<ele>335</ele>
<time>2023-01-04T00:30:20Z</time></trkpt>
<trkpt lat="31.78658" lon="34.98654">
<ele>333</ele>
<time>2023-01-04T00:30:23Z</time></trkpt>
<trkpt lat="31.78651" lon="34.98655">
<ele>333</ele>
<time>2023-01-04T00:30:24Z</time></trkpt>
<trkpt lat="31.78647" lon="34.98659">
<ele>333</ele>
<time>2023-01-04T00:30:25Z</time></trkpt>
<trkpt lat="31.78644" lon="34.98665">
<ele>333</ele>
<time>2023-01-04T00:30:26Z</time></trkpt>
<trkpt lat="31.78641" lon="34.98712">
<ele>334</ele>
<time>2023-01-04T00:30:34Z</time></trkpt>
<trkpt lat="31.78641" lon="34.98762">
<ele>334</ele>
<time>2023-01-04T00:30:43Z</time></trkpt>
<trkpt lat="31.78647" lon="34.98825">
<ele>334</ele>
<time>2023-01-04T00:30:54Z</time></trkpt>
<trkpt lat="31.78645" lon="34.98855">
<ele>334</ele>
<time>2023-01-04T00:30:59Z</time></trkpt>
<trkpt lat="31.78639" lon="34.98905">
<ele>334</ele>
<time>2023-01-04T00:31:07Z</time></trkpt>
<trkpt lat="31.78636" lon="34.98953">
<ele>338</ele>
<time>2023-01-04T00:31:16Z</time></trkpt>
<trkpt lat="31.78634" lon="34.98968">
<ele>339</ele>
<time>2023-01-04T00:31:18Z</time></trkpt>
<trkpt lat="31.78614" lon="34.99005">
<ele>341</ele>
<time>2023-01-04T00:31:26Z</time></trkpt>
<trkpt lat="31.78599" lon="34.99015">
<ele>341</ele>
<time>2023-01-04T00:31:29Z</time></trkpt>
<trkpt lat="31.78592" lon="34.99017">
<ele>341</ele>
<time>2023-01-04T00:31:31Z</time></trkpt>
<trkpt lat="31.78585" lon="34.99016">
<ele>340</ele>
<time>2023-01-04T00:31:32Z</time></trkpt>
<trkpt lat="31.78555" lon="34.98995">
<ele>337</ele>
<time>2023-01-04T00:31:39Z</time></trkpt>
<trkpt lat="31.78546" lon="34.98995">
<ele>337</ele>
<time>2023-01-04T00:31:41Z</time></trkpt>
<trkpt lat="31.78533" lon="34.99002">
<ele>338</ele>
<time>2023-01-04T00:31:44Z</time></trkpt>
<trkpt lat="31.78516" lon="34.99015">
<ele>338</ele>
<time>2023-01-04T00:31:48Z</time></trkpt>
<trkpt lat="31.78508" lon="34.99022">
<ele>339</ele>
<time>2023-01-04T00:31:50Z</time></trkpt>
<trkpt lat="31.785" lon="34.99035">
<ele>339</ele>
<time>2023-01-04T00:31:52Z</time></trkpt>
<trkpt lat="31.78493" lon="34.99053">
<ele>339</ele>
<time>2023-01-04T00:31:56Z</time></trkpt>
<trkpt lat="31.7849" lon="34.99078">
<ele>340</ele>
<time>2023-01-04T00:32:00Z</time></trkpt>
<trkpt lat="31.78496" lon="34.99116">
<ele>344</ele>
<time>2023-01-04T00:32:07Z</time></trkpt>
<trkpt lat="31.78505" lon="34.99144">
<ele>347</ele>
<time>2023-01-04T00:32:12Z</time></trkpt>
<trkpt lat="31.78505" lon="34.9916">
<ele>348</ele>
<time>2023-01-04T00:32:14Z</time></trkpt>
<trkpt lat="31.785" lon="34.99174">
<ele>349</ele>
<time>2023-01-04T00:32:17Z</time></trkpt>
<trkpt lat="31.78496" lon="34.9918">
<ele>349</ele>
<time>2023-01-04T00:32:18Z</time></trkpt>
<trkpt lat="31.7849" lon="34.99184">
<ele>350</ele>
<time>2023-01-04T00:32:20Z</time></trkpt>
<trkpt lat="31.78461" lon="34.99191">
<ele>349</ele>
<time>2023-01-04T00:32:26Z</time></trkpt>
<trkpt lat="31.78422" lon="34.99186">
<ele>346</ele>
<time>2023-01-04T00:32:34Z</time></trkpt>
<trkpt lat="31.78399" lon="34.99177">
<ele>345</ele>
<time>2023-01-04T00:32:38Z</time></trkpt>
<trkpt lat="31.7839" lon="34.99172">
<ele>345</ele>
<time>2023-01-04T00:32:40Z</time></trkpt>
<trkpt lat="31.78363" lon="34.99147">
<ele>344</ele>
<time>2023-01-04T00:32:47Z</time></trkpt>
<trkpt lat="31.78349" lon="34.99129">
<ele>343</ele>
<time>2023-01-04T00:32:51Z</time></trkpt>
<trkpt lat="31.78336" lon="34.99106">
<ele>340</ele>
<time>2023-01-04T00:32:56Z</time></trkpt>
<trkpt lat="31.7832" lon="34.99064">
<ele>336</ele>
<time>2023-01-04T00:33:04Z</time></trkpt>
<trkpt lat="31.78312" lon="34.99026">
<ele>332</ele>
<time>2023-01-04T00:33:11Z</time></trkpt>
<trkpt lat="31.78305" lon="34.99006">
<ele>330</ele>
<time>2023-01-04T00:33:14Z</time></trkpt>
<trkpt lat="31.78297" lon="34.98994">
<ele>329</ele>
<time>2023-01-04T00:33:17Z</time></trkpt>
<trkpt lat="31.78286" lon="34.98987">
<ele>329</ele>
<time>2023-01-04T00:33:19Z</time></trkpt>
<trkpt lat="31.78277" lon="34.98986">
<ele>330</ele>
<time>2023-01-04T00:33:21Z</time></trkpt>
<trkpt lat="31.78252" lon="34.98994">
<ele>333</ele>
<time>2023-01-04T00:33:26Z</time></trkpt>
<trkpt lat="31.78234" lon="34.98999">
<ele>333</ele>
<time>2023-01-04T00:33:30Z</time></trkpt>
<trkpt lat="31.78226" lon="34.98999">
<ele>332</ele>
<time>2023-01-04T00:33:32Z</time></trkpt>
<trkpt lat="31.78207" lon="34.98992">
<ele>329</ele>
<time>2023-01-04T00:33:36Z</time></trkpt>
<trkpt lat="31.782" lon="34.98994">
<ele>329</ele>
<time>2023-01-04T00:33:37Z</time></trkpt>
<trkpt lat="31.78195" lon="34.98998">
<ele>329</ele>
<time>2023-01-04T00:33:38Z</time></trkpt>
<trkpt lat="31.78193" lon="34.99005">
<ele>330</ele>
<time>2023-01-04T00:33:40Z</time></trkpt>
<trkpt lat="31.78193" lon="34.99021">
<ele>331</ele>
<time>2023-01-04T00:33:42Z</time></trkpt>
<trkpt lat="31.78198" lon="34.99071">
<ele>335</ele>
<time>2023-01-04T00:33:51Z</time></trkpt>
<trkpt lat="31.78199" lon="34.99113">
<ele>339</ele>
<time>2023-01-04T00:33:58Z</time></trkpt>
<trkpt lat="31.78193" lon="34.99172">
<ele>343</ele>
<time>2023-01-04T00:34:08Z</time></trkpt>
<trkpt lat="31.78189" lon="34.99188">
<ele>343</ele>
<time>2023-01-04T00:34:11Z</time></trkpt>
<trkpt lat="31.7818" lon="34.992">
<ele>343</ele>
<time>2023-01-04T00:34:14Z</time></trkpt>
<trkpt lat="31.78175" lon="34.99202">
<ele>342</ele>
<time>2023-01-04T00:34:15Z</time></trkpt>
<trkpt lat="31.78168" lon="34.99203">
<ele>341</ele>
<time>2023-01-04T00:34:16Z</time></trkpt>
<trkpt lat="31.78092" lon="34.99178">
<ele>342</ele>
<time>2023-01-04T00:34:32Z</time></trkpt>
<trkpt lat="31.78039" lon="34.99168">
<ele>344</ele>
<time>2023-01-04T00:34:43Z</time></trkpt>
<trkpt lat="31.7803" lon="34.99164">
<ele>343</ele>
<time>2023-01-04T00:34:45Z</time></trkpt>
<trkpt lat="31.78017" lon="34.99156">
<ele>343</ele>
<time>2023-01-04T00:34:48Z</time></trkpt>
<trkpt lat="31.77908" lon="34.99074">
<ele>336</ele>
<time>2023-01-04T00:35:14Z</time></trkpt>
<trkpt lat="31.77876" lon="34.99062">
<ele>338</ele>
<time>2023-01-04T00:35:20Z</time></trkpt>
<trkpt lat="31.77863" lon="34.99051">
<ele>339</ele>
<time>2023-01-04T00:35:24Z</time></trkpt>
<trkpt lat="31.77853" lon="34.9903">
<ele>341</ele>
<time>2023-01-04T00:35:28Z</time></trkpt>
<trkpt lat="31.77851" lon="34.98932">
<ele>349</ele>
<time>2023-01-04T00:35:44Z</time></trkpt>
<trkpt lat="31.77856" lon="34.98919">
<ele>349</ele>
<time>2023-01-04T00:35:47Z</time></trkpt>
<trkpt lat="31.77881" lon="34.98865">
<ele>343</ele>
<time>2023-01-04T00:35:57Z</time></trkpt>
<trkpt lat="31.77882" lon="34.98858">
<ele>343</ele>
<time>2023-01-04T00:35:58Z</time></trkpt>
<trkpt lat="31.77879" lon="34.98845">
<ele>343</ele>
<time>2023-01-04T00:36:01Z</time></trkpt>
<trkpt lat="31.77872" lon="34.98835">
<ele>343</ele>
<time>2023-01-04T00:36:03Z</time></trkpt>
<trkpt lat="31.77854" lon="34.98818">
<ele>341</ele>
<time>2023-01-04T00:36:08Z</time></trkpt>
<trkpt lat="31.77844" lon="34.9881">
<ele>341</ele>
<time>2023-01-04T00:36:10Z</time></trkpt>
<trkpt lat="31.77834" lon="34.98807">
<ele>341</ele>
<time>2023-01-04T00:36:12Z</time></trkpt>
<trkpt lat="31.77833" lon="34.98807">
<ele>341</ele>
<time>2023-01-04T00:36:12Z</time></trkpt>
<trkpt lat="31.77799" lon="34.98794">
<ele>341</ele>
<time>2023-01-04T00:36:19Z</time></trkpt>
<trkpt lat="31.77758" lon="34.98767">
<ele>339</ele>
<time>2023-01-04T00:36:29Z</time></trkpt>
<trkpt lat="31.77712" lon="34.98724">
<ele>338</ele>
<time>2023-01-04T00:36:41Z</time></trkpt>
<trkpt lat="31.77692" lon="34.98694">
<ele>339</ele>
<time>2023-01-04T00:36:47Z</time></trkpt>
<trkpt lat="31.77672" lon="34.98659">
<ele>340</ele>
<time>2023-01-04T00:36:54Z</time></trkpt>
<trkpt lat="31.7767012" lon="34.9864711">
<ele>341</ele>
<time>2023-01-04T00:36:56Z</time></trkpt>
<trkpt lat="31.776696" lon="34.986409">
<ele>341</ele>
<time>2023-01-04T00:36:57Z</time></trkpt>
<trkpt lat="31.776596" lon="34.986105">
<ele>345</ele>
<time>2023-01-04T00:37:03Z</time></trkpt>
<trkpt lat="31.776588" lon="34.985901">
<ele>346</ele>
<time>2023-01-04T00:37:06Z</time></trkpt>
<trkpt lat="31.776515" lon="34.985507">
<ele>347</ele>
<time>2023-01-04T00:37:13Z</time></trkpt>
<trkpt lat="31.776367" lon="34.98504">
<ele>349</ele>
<time>2023-01-04T00:37:22Z</time></trkpt>
<trkpt lat="31.776296" lon="34.984624">
<ele>349</ele>
<time>2023-01-04T00:37:29Z</time></trkpt>
<trkpt lat="31.776253" lon="34.984489">
<ele>349</ele>
<time>2023-01-04T00:37:32Z</time></trkpt>
<trkpt lat="31.776188" lon="34.984379">
<ele>349</ele>
<time>2023-01-04T00:37:34Z</time></trkpt>
<trkpt lat="31.775933" lon="34.984136">
<ele>351</ele>
<time>2023-01-04T00:37:40Z</time></trkpt>
<trkpt lat="31.775984" lon="34.984093">
<ele>351</ele>
<time>2023-01-04T00:37:42Z</time></trkpt>
<trkpt lat="31.775933" lon="34.984136">
<ele>351</ele>
<time>2023-01-04T00:37:43Z</time></trkpt>
<trkpt lat="31.775844" lon="34.984069">
<ele>353</ele>
<time>2023-01-04T00:37:45Z</time></trkpt>
<trkpt lat="31.775769" lon="34.984035">
<ele>354</ele>
<time>2023-01-04T00:37:47Z</time></trkpt>
<trkpt lat="31.775448" lon="34.983968">
<ele>359</ele>
<time>2023-01-04T00:37:53Z</time></trkpt>
<trkpt lat="31.775107" lon="34.983923">
<ele>363</ele>
<time>2023-01-04T00:38:00Z</time></trkpt>
<trkpt lat="31.774923" lon="34.983935">
<ele>364</ele>
<time>2023-01-04T00:38:04Z</time></trkpt>
<trkpt lat="31.774585" lon="34.983913">
<ele>367</ele>
<time>2023-01-04T00:38:10Z</time></trkpt>
<trkpt lat="31.774243" lon="34.983915">
<ele>371</ele>
<time>2023-01-04T00:38:17Z</time></trkpt>
<trkpt lat="31.773919" lon="34.983999">
<ele>371</ele>
<time>2023-01-04T00:38:24Z</time></trkpt>
<trkpt lat="31.773642" lon="34.983851">
<ele>372</ele>
<time>2023-01-04T00:38:30Z</time></trkpt>
<trkpt lat="31.773524" lon="34.983875">
<ele>372</ele>
<time>2023-01-04T00:38:32Z</time></trkpt>
<trkpt lat="31.77339" lon="34.983844">
<ele>372</ele>
<time>2023-01-04T00:38:35Z</time></trkpt>
<trkpt lat="31.773312" lon="34.983958">
<ele>371</ele>
<time>2023-01-04T00:38:38Z</time></trkpt>
<trkpt lat="31.7732251" lon="34.98379">
<ele>370</ele>
<time>2023-01-04T00:38:41Z</time></trkpt>
<trkpt lat="31.77262" lon="34.98265">
<ele>369</ele>
<time>2023-01-04T00:39:04Z</time></trkpt>
<trkpt lat="31.77262" lon="34.98264">
<ele>369</ele>
<time>2023-01-04T00:39:04Z</time></trkpt>
<trkpt lat="31.77237" lon="34.9822">
<ele>366</ele>
<time>2023-01-04T00:39:13Z</time></trkpt>
<trkpt lat="31.77214" lon="34.98193">
<ele>361</ele>
<time>2023-01-04T00:39:20Z</time></trkpt>
<trkpt lat="31.77208" lon="34.98182">
<ele>360</ele>
<time>2023-01-04T00:39:22Z</time></trkpt>
<trkpt lat="31.77203" lon="34.98136">
<ele>357</ele>
<time>2023-01-04T00:39:30Z</time></trkpt>
<trkpt lat="31.77198" lon="34.98116">
<ele>354</ele>
<time>2023-01-04T00:39:33Z</time></trkpt>
<trkpt lat="31.77192" lon="34.981">
<ele>351</ele>
<time>2023-01-04T00:39:36Z</time></trkpt>
<trkpt lat="31.77183" lon="34.98094">
<ele>348</ele>
<time>2023-01-04T00:39:38Z</time></trkpt>
<trkpt lat="31.77159" lon="34.98085">
<ele>340</ele>
<time>2023-01-04T00:39:43Z</time></trkpt>
<trkpt lat="31.77153" lon="34.9808">
<ele>339</ele>
<time>2023-01-04T00:39:45Z</time></trkpt>
<trkpt lat="31.77149" lon="34.98073">
<ele>338</ele>
<time>2023-01-04T00:39:46Z</time></trkpt>
<trkpt lat="31.77147" lon="34.98052">
<ele>337</ele>
<time>2023-01-04T00:39:50Z</time></trkpt>
<trkpt lat="31.7715" lon="34.98039">
<ele>338</ele>
<time>2023-01-04T00:39:52Z</time></trkpt>
<trkpt lat="31.77154" lon="34.98032">
<ele>339</ele>
<time>2023-01-04T00:39:54Z</time></trkpt>
<trkpt lat="31.77161" lon="34.98023">
<ele>341</ele>
<time>2023-01-04T00:39:56Z</time></trkpt>
<trkpt lat="31.77186" lon="34.98005">
<ele>347</ele>
<time>2023-01-04T00:40:02Z</time></trkpt>
<trkpt lat="31.77188" lon="34.97998">
<ele>348</ele>
<time>2023-01-04T00:40:03Z</time></trkpt>
<trkpt lat="31.77187" lon="34.9799">
<ele>349</ele>
<time>2023-01-04T00:40:04Z</time></trkpt>
<trkpt lat="31.7718" lon="34.97981">
<ele>349</ele>
<time>2023-01-04T00:40:06Z</time></trkpt>
<trkpt lat="31.77135" lon="34.97964">
<ele>341</ele>
<time>2023-01-04T00:40:16Z</time></trkpt>
<trkpt lat="31.77129" lon="34.97963">
<ele>339</ele>
<time>2023-01-04T00:40:17Z</time></trkpt>
<trkpt lat="31.77115" lon="34.97956">
<ele>337</ele>
<time>2023-01-04T00:40:20Z</time></trkpt>
<trkpt lat="31.77106" lon="34.97948">
<ele>336</ele>
<time>2023-01-04T00:40:22Z</time></trkpt>
<trkpt lat="31.77088" lon="34.97902">
<ele>340</ele>
<time>2023-01-04T00:40:31Z</time></trkpt>
<trkpt lat="31.77052" lon="34.97848">
<ele>340</ele>
<time>2023-01-04T00:40:43Z</time></trkpt>
<trkpt lat="31.77033" lon="34.97824">
<ele>337</ele>
<time>2023-01-04T00:40:48Z</time></trkpt>
<trkpt lat="31.77032" lon="34.97824">
<ele>337</ele>
<time>2023-01-04T00:40:48Z</time></trkpt>
<trkpt lat="31.77006" lon="34.97794">
<ele>332</ele>
<time>2023-01-04T00:40:56Z</time></trkpt>
<trkpt lat="31.7698" lon="34.97778">
<ele>329</ele>
<time>2023-01-04T00:41:02Z</time></trkpt>
<trkpt lat="31.76955" lon="34.97741">
<ele>327</ele>
<time>2023-01-04T00:41:10Z</time></trkpt>
<trkpt lat="31.76942" lon="34.97717">
<ele>325</ele>
<time>2023-01-04T00:41:15Z</time></trkpt>
<trkpt lat="31.76938" lon="34.97705">
<ele>325</ele>
<time>2023-01-04T00:41:17Z</time></trkpt>
<trkpt lat="31.76933" lon="34.97681">
<ele>324</ele>
<time>2023-01-04T00:41:21Z</time></trkpt>
<trkpt lat="31.76935" lon="34.97667">
<ele>325</ele>
<time>2023-01-04T00:41:23Z</time></trkpt>
<trkpt lat="31.76941" lon="34.97657">
<ele>327</ele>
<time>2023-01-04T00:41:25Z</time></trkpt>
<trkpt lat="31.76959" lon="34.97637">
<ele>332</ele>
<time>2023-01-04T00:41:30Z</time></trkpt>
<trkpt lat="31.76969" lon="34.97621">
<ele>335</ele>
<time>2023-01-04T00:41:34Z</time></trkpt>
<trkpt lat="31.76972" lon="34.97614">
<ele>336</ele>
<time>2023-01-04T00:41:35Z</time></trkpt>
<trkpt lat="31.76973" lon="34.97604">
<ele>336</ele>
<time>2023-01-04T00:41:37Z</time></trkpt>
<trkpt lat="31.76969" lon="34.97596">
<ele>336</ele>
<time>2023-01-04T00:41:38Z</time></trkpt>
<trkpt lat="31.76963" lon="34.97592">
<ele>335</ele>
<time>2023-01-04T00:41:40Z</time></trkpt>
<trkpt lat="31.7695" lon="34.9759">
<ele>333</ele>
<time>2023-01-04T00:41:42Z</time></trkpt>
<trkpt lat="31.7693" lon="34.97596">
<ele>329</ele>
<time>2023-01-04T00:41:47Z</time></trkpt>
<trkpt lat="31.76916" lon="34.97596">
<ele>327</ele>
<time>2023-01-04T00:41:49Z</time></trkpt>
<trkpt lat="31.76904" lon="34.97592">
<ele>326</ele>
<time>2023-01-04T00:41:52Z</time></trkpt>
<trkpt lat="31.76869" lon="34.97572">
<ele>325</ele>
<time>2023-01-04T00:42:00Z</time></trkpt>
<trkpt lat="31.7675" lon="34.97465">
<ele>327</ele>
<time>2023-01-04T00:42:30Z</time></trkpt>
<trkpt lat="31.76743" lon="34.97457">
<ele>327</ele>
<time>2023-01-04T00:42:32Z</time></trkpt>
<trkpt lat="31.76728" lon="34.97432">
<ele>328</ele>
<time>2023-01-04T00:42:37Z</time></trkpt>
<trkpt lat="31.76707" lon="34.97383">
<ele>328</ele>
<time>2023-01-04T00:42:46Z</time></trkpt>
<trkpt lat="31.76694" lon="34.97334">
<ele>328</ele>
<time>2023-01-04T00:42:55Z</time></trkpt>
<trkpt lat="31.76687" lon="34.97302">
<ele>324</ele>
<time>2023-01-04T00:43:01Z</time></trkpt>
<trkpt lat="31.76685" lon="34.97281">
<ele>322</ele>
<time>2023-01-04T00:43:04Z</time></trkpt>
<trkpt lat="31.76686" lon="34.97268">
<ele>321</ele>
<time>2023-01-04T00:43:06Z</time></trkpt>
<trkpt lat="31.76691" lon="34.97229">
<ele>320</ele>
<time>2023-01-04T00:43:13Z</time></trkpt>
<trkpt lat="31.76699" lon="34.97205">
<ele>320</ele>
<time>2023-01-04T00:43:17Z</time></trkpt>
<trkpt lat="31.76714" lon="34.97184">
<ele>322</ele>
<time>2023-01-04T00:43:22Z</time></trkpt>
<trkpt lat="31.76714" lon="34.97185">
<ele>322</ele>
<time>2023-01-04T00:43:22Z</time></trkpt>
<trkpt lat="31.76766" lon="34.97134">
<ele>328</ele>
<time>2023-01-04T00:43:36Z</time></trkpt>
<trkpt lat="31.76792" lon="34.97118">
<ele>332</ele>
<time>2023-01-04T00:43:42Z</time></trkpt>
<trkpt lat="31.76811" lon="34.97103">
<ele>333</ele>
<time>2023-01-04T00:43:46Z</time></trkpt>
<trkpt lat="31.76835" lon="34.97078">
<ele>332</ele>
<time>2023-01-04T00:43:53Z</time></trkpt>
<trkpt lat="31.76864" lon="34.97036">
<ele>334</ele>
<time>2023-01-04T00:44:02Z</time></trkpt>
<trkpt lat="31.76897" lon="34.96993">
<ele>334</ele>
<time>2023-01-04T00:44:12Z</time></trkpt>
<trkpt lat="31.76903" lon="34.96983">
<ele>334</ele>
<time>2023-01-04T00:44:14Z</time></trkpt>
<trkpt lat="31.76908" lon="34.96969">
<ele>334</ele>
<time>2023-01-04T00:44:17Z</time></trkpt>
<trkpt lat="31.76912" lon="34.96952">
<ele>333</ele>
<time>2023-01-04T00:44:20Z</time></trkpt>
<trkpt lat="31.7691" lon="34.96883">
<ele>326</ele>
<time>2023-01-04T00:44:31Z</time></trkpt>
<trkpt lat="31.76912" lon="34.96813">
<ele>323</ele>
<time>2023-01-04T00:44:43Z</time></trkpt>
<trkpt lat="31.76912" lon="34.96792">
<ele>322</ele>
<time>2023-01-04T00:44:47Z</time></trkpt>
<trkpt lat="31.76908" lon="34.96742">
<ele>318</ele>
<time>2023-01-04T00:44:55Z</time></trkpt>
<trkpt lat="31.76902" lon="34.96717">
<ele>317</ele>
<time>2023-01-04T00:45:00Z</time></trkpt>
<trkpt lat="31.76881" lon="34.96655">
<ele>309</ele>
<time>2023-01-04T00:45:11Z</time></trkpt>
<trkpt lat="31.76879" lon="34.96643">
<ele>309</ele>
<time>2023-01-04T00:45:13Z</time></trkpt>
<trkpt lat="31.76881" lon="34.96603">
<ele>312</ele>
<time>2023-01-04T00:45:20Z</time></trkpt>
<trkpt lat="31.7688" lon="34.96594">
<ele>312</ele>
<time>2023-01-04T00:45:22Z</time></trkpt>
<trkpt lat="31.76873" lon="34.96577">
<ele>310</ele>
<time>2023-01-04T00:45:25Z</time></trkpt>
<trkpt lat="31.76843" lon="34.96543">
<ele>304</ele>
<time>2023-01-04T00:45:33Z</time></trkpt>
<trkpt lat="31.76835" lon="34.9653">
<ele>303</ele>
<time>2023-01-04T00:45:36Z</time></trkpt>
<trkpt lat="31.76815" lon="34.96492">
<ele>301</ele>
<time>2023-01-04T00:45:44Z</time></trkpt>
<trkpt lat="31.7681" lon="34.96479">
<ele>299</ele>
<time>2023-01-04T00:45:46Z</time></trkpt>
<trkpt lat="31.76808" lon="34.96458">
<ele>298</ele>
<time>2023-01-04T00:45:50Z</time></trkpt>
<trkpt lat="31.7681" lon="34.96449">
<ele>299</ele>
<time>2023-01-04T00:45:51Z</time></trkpt>
<trkpt lat="31.7682" lon="34.96425">
<ele>302</ele>
<time>2023-01-04T00:45:56Z</time></trkpt>
<trkpt lat="31.76857" lon="34.96361">
<ele>303</ele>
<time>2023-01-04T00:46:09Z</time></trkpt>
<trkpt lat="31.76867" lon="34.96349">
<ele>303</ele>
<time>2023-01-04T00:46:12Z</time></trkpt>
<trkpt lat="31.76878" lon="34.96343">
<ele>304</ele>
<time>2023-01-04T00:46:14Z</time></trkpt>
<trkpt lat="31.76932" lon="34.96353">
<ele>316</ele>
<time>2023-01-04T00:46:25Z</time></trkpt>
<trkpt lat="31.76949" lon="34.96352">
<ele>318</ele>
<time>2023-01-04T00:46:29Z</time></trkpt>
<trkpt lat="31.76959" lon="34.9635">
<ele>319</ele>
<time>2023-01-04T00:46:31Z</time></trkpt>
<trkpt lat="31.76971" lon="34.96342">
<ele>320</ele>
<time>2023-01-04T00:46:33Z</time></trkpt>
<trkpt lat="31.77006" lon="34.96303">
<ele>319</ele>
<time>2023-01-04T00:46:43Z</time></trkpt>
<trkpt lat="31.77017" lon="34.96287">
<ele>319</ele>
<time>2023-01-04T00:46:46Z</time></trkpt>
<trkpt lat="31.77066" lon="34.96206">
<ele>324</ele>
<time>2023-01-04T00:47:03Z</time></trkpt>
<trkpt lat="31.77081" lon="34.96173">
<ele>323</ele>
<time>2023-01-04T00:47:10Z</time></trkpt>
<trkpt lat="31.7709" lon="34.96158">
<ele>321</ele>
<time>2023-01-04T00:47:13Z</time></trkpt>
<trkpt lat="31.77098" lon="34.9615">
<ele>320</ele>
<time>2023-01-04T00:47:15Z</time></trkpt>
<trkpt lat="31.77108" lon="34.96144">
<ele>320</ele>
<time>2023-01-04T00:47:17Z</time></trkpt>
<trkpt lat="31.77129" lon="34.96138">
<ele>321</ele>
<time>2023-01-04T00:47:22Z</time></trkpt>
<trkpt lat="31.77141" lon="34.96138">
<ele>323</ele>
<time>2023-01-04T00:47:24Z</time></trkpt>
<trkpt lat="31.7717" lon="34.96148">
<ele>329</ele>
<time>2023-01-04T00:47:30Z</time></trkpt>
<trkpt lat="31.77176" lon="34.96152">
<ele>330</ele>
<time>2023-01-04T00:47:31Z</time></trkpt>
<trkpt lat="31.77184" lon="34.96166">
<ele>333</ele>
<time>2023-01-04T00:47:34Z</time></trkpt>
<trkpt lat="31.77193" lon="34.96201">
<ele>338</ele>
<time>2023-01-04T00:47:41Z</time></trkpt>
<trkpt lat="31.77193" lon="34.962">
<ele>338</ele>
<time>2023-01-04T00:47:41Z</time></trkpt>
<trkpt lat="31.77207" lon="34.96252">
<ele>345</ele>
<time>2023-01-04T00:47:50Z</time></trkpt>
<trkpt lat="31.77208" lon="34.96263">
<ele>345</ele>
<time>2023-01-04T00:47:52Z</time></trkpt>
<trkpt lat="31.77203" lon="34.96278">
<ele>346</ele>
<time>2023-01-04T00:47:55Z</time></trkpt>
<trkpt lat="31.77194" lon="34.9629">
<ele>346</ele>
<time>2023-01-04T00:47:57Z</time></trkpt>
<trkpt lat="31.77078" lon="34.9635">
<ele>338</ele>
<time>2023-01-04T00:48:23Z</time></trkpt>
<trkpt lat="31.77001" lon="34.96397">
<ele>328</ele>
<time>2023-01-04T00:48:40Z</time></trkpt>
<trkpt lat="31.76993" lon="34.96404">
<ele>328</ele>
<time>2023-01-04T00:48:42Z</time></trkpt>
<trkpt lat="31.76983" lon="34.96422">
<ele>329</ele>
<time>2023-01-04T00:48:46Z</time></trkpt>
<trkpt lat="31.76981" lon="34.96434">
<ele>331</ele>
<time>2023-01-04T00:48:48Z</time></trkpt>
<trkpt lat="31.76984" lon="34.96454">
<ele>333</ele>
<time>2023-01-04T00:48:51Z</time></trkpt>
<trkpt lat="31.76991" lon="34.96464">
<ele>334</ele>
<time>2023-01-04T00:48:54Z</time></trkpt>
<trkpt lat="31.77033" lon="34.96488">
<ele>337</ele>
<time>2023-01-04T00:49:03Z</time></trkpt>
<trkpt lat="31.77083" lon="34.96508">
<ele>338</ele>
<time>2023-01-04T00:49:14Z</time></trkpt>
<trkpt lat="31.77105" lon="34.96522">
<ele>338</ele>
<time>2023-01-04T00:49:19Z</time></trkpt>
<trkpt lat="31.77119" lon="34.96537">
<ele>339</ele>
<time>2023-01-04T00:49:22Z</time></trkpt>
<trkpt lat="31.77125" lon="34.96547">
<ele>340</ele>
<time>2023-01-04T00:49:24Z</time></trkpt>
<trkpt lat="31.7713" lon="34.96561">
<ele>341</ele>
<time>2023-01-04T00:49:27Z</time></trkpt>
<trkpt lat="31.77132" lon="34.96574">
<ele>343</ele>
<time>2023-01-04T00:49:29Z</time></trkpt>
<trkpt lat="31.77132" lon="34.96612">
<ele>346</ele>
<time>2023-01-04T00:49:36Z</time></trkpt>
<trkpt lat="31.77126" lon="34.96639">
<ele>348</ele>
<time>2023-01-04T00:49:40Z</time></trkpt>
<trkpt lat="31.77092" lon="34.96747">
<ele>357</ele>
<time>2023-01-04T00:50:00Z</time></trkpt>
<trkpt lat="31.77061" lon="34.96838">
<ele>359</ele>
<time>2023-01-04T00:50:17Z</time></trkpt>
<trkpt lat="31.77031" lon="34.96938">
<ele>361</ele>
<time>2023-01-04T00:50:35Z</time></trkpt>
<trkpt lat="31.77029" lon="34.96952">
<ele>362</ele>
<time>2023-01-04T00:50:37Z</time></trkpt>
<trkpt lat="31.7703" lon="34.97011">
<ele>365</ele>
<time>2023-01-04T00:50:47Z</time></trkpt>
<trkpt lat="31.77035" lon="34.97056">
<ele>369</ele>
<time>2023-01-04T00:50:55Z</time></trkpt>
<trkpt lat="31.77047" lon="34.97099">
<ele>374</ele>
<time>2023-01-04T00:51:03Z</time></trkpt>
<trkpt lat="31.77054" lon="34.97105">
<ele>374</ele>
<time>2023-01-04T00:51:04Z</time></trkpt>
<trkpt lat="31.7706" lon="34.97108">
<ele>374</ele>
<time>2023-01-04T00:51:06Z</time></trkpt>
<trkpt lat="31.77067" lon="34.97107">
<ele>373</ele>
<time>2023-01-04T00:51:07Z</time></trkpt>
<trkpt lat="31.77073" lon="34.97104">
<ele>372</ele>
<time>2023-01-04T00:51:09Z</time></trkpt>
<trkpt lat="31.77121" lon="34.97061">
<ele>367</ele>
<time>2023-01-04T00:51:21Z</time></trkpt>
<trkpt lat="31.77141" lon="34.97046">
<ele>367</ele>
<time>2023-01-04T00:51:25Z</time></trkpt>
<trkpt lat="31.77152" lon="34.97044">
<ele>367</ele>
<time>2023-01-04T00:51:28Z</time></trkpt>
<trkpt lat="31.77159" lon="34.97045">
<ele>368</ele>
<time>2023-01-04T00:51:29Z</time></trkpt>
<trkpt lat="31.77166" lon="34.97049">
<ele>369</ele>
<time>2023-01-04T00:51:31Z</time></trkpt>
<trkpt lat="31.7718" lon="34.97067">
<ele>369</ele>
<time>2023-01-04T00:51:35Z</time></trkpt>
<trkpt lat="31.77198" lon="34.97126">
<ele>373</ele>
<time>2023-01-04T00:51:45Z</time></trkpt>
<trkpt lat="31.77206" lon="34.97147">
<ele>374</ele>
<time>2023-01-04T00:51:49Z</time></trkpt>
<trkpt lat="31.77214" lon="34.97161">
<ele>374</ele>
<time>2023-01-04T00:51:52Z</time></trkpt>
<trkpt lat="31.7725" lon="34.97208">
<ele>371</ele>
<time>2023-01-04T00:52:03Z</time></trkpt>
<trkpt lat="31.77258" lon="34.97222">
<ele>371</ele>
<time>2023-01-04T00:52:06Z</time></trkpt>
<trkpt lat="31.77263" lon="34.97244">
<ele>373</ele>
<time>2023-01-04T00:52:10Z</time></trkpt>
<trkpt lat="31.7726" lon="34.97259">
<ele>374</ele>
<time>2023-01-04T00:52:12Z</time></trkpt>
<trkpt lat="31.77254" lon="34.97276">
<ele>374</ele>
<time>2023-01-04T00:52:15Z</time></trkpt>
<trkpt lat="31.77242" lon="34.97299">
<ele>376</ele>
<time>2023-01-04T00:52:20Z</time></trkpt>
<trkpt lat="31.7722" lon="34.97325">
<ele>380</ele>
<time>2023-01-04T00:52:26Z</time></trkpt>
<trkpt lat="31.7718" lon="34.97361">
<ele>388</ele>
<time>2023-01-04T00:52:36Z</time></trkpt>
<trkpt lat="31.77169" lon="34.97376">
<ele>390</ele>
<time>2023-01-04T00:52:40Z</time></trkpt>
<trkpt lat="31.7716" lon="34.97391">
<ele>390</ele>
<time>2023-01-04T00:52:43Z</time></trkpt>
<trkpt lat="31.77156" lon="34.97405">
<ele>389</ele>
<time>2023-01-04T00:52:45Z</time></trkpt>
<trkpt lat="31.77153" lon="34.97419">
<ele>388</ele>
<time>2023-01-04T00:52:48Z</time></trkpt>
<trkpt lat="31.77154" lon="34.97428">
<ele>388</ele>
<time>2023-01-04T00:52:49Z</time></trkpt>
<trkpt lat="31.77154" lon="34.97427">
<ele>388</ele>
<time>2023-01-04T00:52:50Z</time></trkpt>
<trkpt lat="31.77154" lon="34.97448">
<ele>387</ele>
<time>2023-01-04T00:52:53Z</time></trkpt>
<trkpt lat="31.77156" lon="34.97461">
<ele>387</ele>
<time>2023-01-04T00:52:55Z</time></trkpt>
<trkpt lat="31.77161" lon="34.97473">
<ele>387</ele>
<time>2023-01-04T00:52:58Z</time></trkpt>
<trkpt lat="31.77175" lon="34.97497">
<ele>387</ele>
<time>2023-01-04T00:53:03Z</time></trkpt>
<trkpt lat="31.77229" lon="34.97561">
<ele>385</ele>
<time>2023-01-04T00:53:18Z</time></trkpt>
<trkpt lat="31.77274" lon="34.97626">
<ele>385</ele>
<time>2023-01-04T00:53:32Z</time></trkpt>
<trkpt lat="31.77293" lon="34.97658">
<ele>384</ele>
<time>2023-01-04T00:53:39Z</time></trkpt>
<trkpt lat="31.77298" lon="34.97671">
<ele>383</ele>
<time>2023-01-04T00:53:41Z</time></trkpt>
<trkpt lat="31.77303" lon="34.97701">
<ele>382</ele>
<time>2023-01-04T00:53:47Z</time></trkpt>
<trkpt lat="31.773" lon="34.97723">
<ele>382</ele>
<time>2023-01-04T00:53:50Z</time></trkpt>
<trkpt lat="31.773" lon="34.97747">
<ele>382</ele>
<time>2023-01-04T00:53:54Z</time></trkpt>
<trkpt lat="31.77296" lon="34.97772">
<ele>382</ele>
<time>2023-01-04T00:53:59Z</time></trkpt>
<trkpt lat="31.77297" lon="34.9779">
<ele>381</ele>
<time>2023-01-04T00:54:02Z</time></trkpt>
<trkpt lat="31.77306" lon="34.97842">
<ele>378</ele>
<time>2023-01-04T00:54:11Z</time></trkpt>
<trkpt lat="31.77306" lon="34.97841">
<ele>378</ele>
<time>2023-01-04T00:54:11Z</time></trkpt>
<trkpt lat="31.77312" lon="34.9786">
<ele>377</ele>
<time>2023-01-04T00:54:15Z</time></trkpt>
<trkpt lat="31.77337" lon="34.97908">
<ele>378</ele>
<time>2023-01-04T00:54:24Z</time></trkpt>
<trkpt lat="31.77349" lon="34.97912">
<ele>380</ele>
<time>2023-01-04T00:54:27Z</time></trkpt>
<trkpt lat="31.77374" lon="34.97912">
<ele>384</ele>
<time>2023-01-04T00:54:32Z</time></trkpt>
<trkpt lat="31.77388" lon="34.97904">
<ele>385</ele>
<time>2023-01-04T00:54:35Z</time></trkpt>
<trkpt lat="31.77401" lon="34.9789">
<ele>386</ele>
<time>2023-01-04T00:54:38Z</time></trkpt>
<trkpt lat="31.7742" lon="34.97843">
<ele>383</ele>
<time>2023-01-04T00:54:47Z</time></trkpt>
<trkpt lat="31.77445" lon="34.97821">
<ele>383</ele>
<time>2023-01-04T00:54:53Z</time></trkpt>
<trkpt lat="31.7748" lon="34.97819">
<ele>387</ele>
<time>2023-01-04T00:55:00Z</time></trkpt>
<trkpt lat="31.7755" lon="34.97836">
<ele>395</ele>
<time>2023-01-04T00:55:15Z</time></trkpt>
<trkpt lat="31.7758" lon="34.97841">
<ele>397</ele>
<time>2023-01-04T00:55:21Z</time></trkpt>
<trkpt lat="31.77594" lon="34.97824">
<ele>396</ele>
<time>2023-01-04T00:55:25Z</time></trkpt>
<trkpt lat="31.77635" lon="34.9773">
<ele>392</ele>
<time>2023-01-04T00:55:43Z</time></trkpt>
<trkpt lat="31.77642" lon="34.97719">
<ele>393</ele>
<time>2023-01-04T00:55:45Z</time></trkpt>
<trkpt lat="31.77592" lon="34.97665">
<ele>392</ele>
<time>2023-01-04T00:55:59Z</time></trkpt>
<trkpt lat="31.7758" lon="34.97651">
<ele>390</ele>
<time>2023-01-04T00:56:02Z</time></trkpt>
<trkpt lat="31.7758" lon="34.9765">
<ele>390</ele>
<time>2023-01-04T00:56:02Z</time></trkpt>
<trkpt lat="31.77564" lon="34.97626">
<ele>387</ele>
<time>2023-01-04T00:56:08Z</time></trkpt>
<trkpt lat="31.77557" lon="34.97609">
<ele>386</ele>
<time>2023-01-04T00:56:11Z</time></trkpt>
<trkpt lat="31.77554" lon="34.97596">
<ele>385</ele>
<time>2023-01-04T00:56:13Z</time></trkpt>
<trkpt lat="31.77552" lon="34.97583">
<ele>385</ele>
<time>2023-01-04T00:56:15Z</time></trkpt>
<trkpt lat="31.77554" lon="34.97566">
<ele>384</ele>
<time>2023-01-04T00:56:18Z</time></trkpt>
<trkpt lat="31.77559" lon="34.97548">
<ele>383</ele>
<time>2023-01-04T00:56:21Z</time></trkpt>
<trkpt lat="31.77584" lon="34.97487">
<ele>384</ele>
<time>2023-01-04T00:56:33Z</time></trkpt>
<trkpt lat="31.77593" lon="34.97468">
<ele>385</ele>
<time>2023-01-04T00:56:37Z</time></trkpt>
<trkpt lat="31.7759" lon="34.97448">
<ele>384</ele>
<time>2023-01-04T00:56:40Z</time></trkpt>
<trkpt lat="31.77583" lon="34.97432">
<ele>383</ele>
<time>2023-01-04T00:56:43Z</time></trkpt>
<trkpt lat="31.77566" lon="34.9741">
<ele>381</ele>
<time>2023-01-04T00:56:48Z</time></trkpt>
<trkpt lat="31.77536" lon="34.97379">
<ele>379</ele>
<time>2023-01-04T00:56:56Z</time></trkpt>
<trkpt lat="31.77529" lon="34.97369">
<ele>378</ele>
<time>2023-01-04T00:56:59Z</time></trkpt>
<trkpt lat="31.77523" lon="34.97356">
<ele>378</ele>
<time>2023-01-04T00:57:01Z</time></trkpt>
<trkpt lat="31.77519" lon="34.9734">
<ele>379</ele>
<time>2023-01-04T00:57:04Z</time></trkpt>
<trkpt lat="31.77519" lon="34.97325">
<ele>379</ele>
<time>2023-01-04T00:57:06Z</time></trkpt>
<trkpt lat="31.77521" lon="34.97311">
<ele>378</ele>
<time>2023-01-04T00:57:09Z</time></trkpt>
<trkpt lat="31.77542" lon="34.97246">
<ele>379</ele>
<time>2023-01-04T00:57:21Z</time></trkpt>
<trkpt lat="31.77546" lon="34.97228">
<ele>379</ele>
<time>2023-01-04T00:57:24Z</time></trkpt>
<trkpt lat="31.77547" lon="34.97211">
<ele>379</ele>
<time>2023-01-04T00:57:27Z</time></trkpt>
<trkpt lat="31.77546" lon="34.97129">
<ele>375</ele>
<time>2023-01-04T00:57:41Z</time></trkpt>
<trkpt lat="31.77552" lon="34.97103">
<ele>374</ele>
<time>2023-01-04T00:57:45Z</time></trkpt>
<trkpt lat="31.77558" lon="34.97091">
<ele>374</ele>
<time>2023-01-04T00:57:48Z</time></trkpt>
<trkpt lat="31.77564" lon="34.97086">
<ele>374</ele>
<time>2023-01-04T00:57:49Z</time></trkpt>
<trkpt lat="31.77579" lon="34.97079">
<ele>375</ele>
<time>2023-01-04T00:57:52Z</time></trkpt>
<trkpt lat="31.77611" lon="34.97075">
<ele>375</ele>
<time>2023-01-04T00:57:59Z</time></trkpt>
<trkpt lat="31.77639" lon="34.97069">
<ele>375</ele>
<time>2023-01-04T00:58:05Z</time></trkpt>
<trkpt lat="31.77671" lon="34.97058">
<ele>374</ele>
<time>2023-01-04T00:58:11Z</time></trkpt>
<trkpt lat="31.77679" lon="34.97053">
<ele>374</ele>
<time>2023-01-04T00:58:13Z</time></trkpt>
<trkpt lat="31.77691" lon="34.9704">
<ele>373</ele>
<time>2023-01-04T00:58:16Z</time></trkpt>
<trkpt lat="31.77694" lon="34.97033">
<ele>373</ele>
<time>2023-01-04T00:58:18Z</time></trkpt>
<trkpt lat="31.77697" lon="34.97025">
<ele>372</ele>
<time>2023-01-04T00:58:19Z</time></trkpt>
<trkpt lat="31.77698" lon="34.97004">
<ele>370</ele>
<time>2023-01-04T00:58:23Z</time></trkpt>
<trkpt lat="31.77688" lon="34.96925">
<ele>369</ele>
<time>2023-01-04T00:58:36Z</time></trkpt>
<trkpt lat="31.77686" lon="34.96881">
<ele>372</ele>
<time>2023-01-04T00:58:44Z</time></trkpt>
<trkpt lat="31.7768" lon="34.96858">
<ele>374</ele>
<time>2023-01-04T00:58:48Z</time></trkpt>
<trkpt lat="31.77668" lon="34.96832">
<ele>375</ele>
<time>2023-01-04T00:58:53Z</time></trkpt>
<trkpt lat="31.77657" lon="34.96816">
<ele>373</ele>
<time>2023-01-04T00:58:56Z</time></trkpt>
<trkpt lat="31.77625" lon="34.96779">
<ele>369</ele>
<time>2023-01-04T00:59:05Z</time></trkpt>
<trkpt lat="31.77594" lon="34.96747">
<ele>367</ele>
<time>2023-01-04T00:59:14Z</time></trkpt>
<trkpt lat="31.77587" lon="34.96738">
<ele>365</ele>
<time>2023-01-04T00:59:16Z</time></trkpt>
<trkpt lat="31.77581" lon="34.96724">
<ele>363</ele>
<time>2023-01-04T00:59:18Z</time></trkpt>
<trkpt lat="31.7758" lon="34.96714">
<ele>362</ele>
<time>2023-01-04T00:59:20Z</time></trkpt>
<trkpt lat="31.7758" lon="34.96706">
<ele>361</ele>
<time>2023-01-04T00:59:22Z</time></trkpt>
<trkpt lat="31.77585" lon="34.96695">
<ele>361</ele>
<time>2023-01-04T00:59:24Z</time></trkpt>
<trkpt lat="31.7759" lon="34.96688">
<ele>360</ele>
<time>2023-01-04T00:59:25Z</time></trkpt>
<trkpt lat="31.776" lon="34.9668">
<ele>359</ele>
<time>2023-01-04T00:59:28Z</time></trkpt>
<trkpt lat="31.77608" lon="34.96676">
<ele>358</ele>
<time>2023-01-04T00:59:29Z</time></trkpt>
<trkpt lat="31.77621" lon="34.96675">
<ele>358</ele>
<time>2023-01-04T00:59:32Z</time></trkpt>
<trkpt lat="31.77671" lon="34.96686">
<ele>360</ele>
<time>2023-01-04T00:59:42Z</time></trkpt>
<trkpt lat="31.77702" lon="34.96688">
<ele>360</ele>
<time>2023-01-04T00:59:48Z</time></trkpt>
<trkpt lat="31.77711" lon="34.96687">
<ele>360</ele>
<time>2023-01-04T00:59:50Z</time></trkpt>
<trkpt lat="31.77744" lon="34.96678">
<ele>357</ele>
<time>2023-01-04T00:59:57Z</time></trkpt>
<trkpt lat="31.77796" lon="34.96653">
<ele>351</ele>
<time>2023-01-04T01:00:08Z</time></trkpt>
<trkpt lat="31.77814" lon="34.96649">
<ele>351</ele>
<time>2023-01-04T01:00:12Z</time></trkpt>
<trkpt lat="31.77827" lon="34.96657">
<ele>352</ele>
<time>2023-01-04T01:00:15Z</time></trkpt>
<trkpt lat="31.77843" lon="34.96679">
<ele>351</ele>
<time>2023-01-04T01:00:20Z</time></trkpt>
<trkpt lat="31.77846" lon="34.9669">
<ele>351</ele>
<time>2023-01-04T01:00:22Z</time></trkpt>
<trkpt lat="31.77855" lon="34.96742">
<ele>353</ele>
<time>2023-01-04T01:00:31Z</time></trkpt>
<trkpt lat="31.77884" lon="34.96872">
<ele>354</ele>
<time>2023-01-04T01:00:54Z</time></trkpt>
<trkpt lat="31.77889" lon="34.96909">
<ele>356</ele>
<time>2023-01-04T01:01:00Z</time></trkpt>
<trkpt lat="31.77892" lon="34.96921">
<ele>356</ele>
<time>2023-01-04T01:01:02Z</time></trkpt>
<trkpt lat="31.77901" lon="34.96927">
<ele>356</ele>
<time>2023-01-04T01:01:04Z</time></trkpt>
<trkpt lat="31.77909" lon="34.96919">
<ele>354</ele>
<time>2023-01-04T01:01:06Z</time></trkpt>
<trkpt lat="31.77914" lon="34.96898">
<ele>351</ele>
<time>2023-01-04T01:01:10Z</time></trkpt>
<trkpt lat="31.77923" lon="34.96833">
<ele>345</ele>
<time>2023-01-04T01:01:21Z</time></trkpt>
<trkpt lat="31.77922" lon="34.96794">
<ele>342</ele>
<time>2023-01-04T01:01:28Z</time></trkpt>
<trkpt lat="31.77923" lon="34.96767">
<ele>340</ele>
<time>2023-01-04T01:01:33Z</time></trkpt>
<trkpt lat="31.77929" lon="34.96745">
<ele>339</ele>
<time>2023-01-04T01:01:37Z</time></trkpt>
<trkpt lat="31.77934" lon="34.9671">
<ele>338</ele>
<time>2023-01-04T01:01:43Z</time></trkpt>
<trkpt lat="31.77948" lon="34.96657">
<ele>336</ele>
<time>2023-01-04T01:01:52Z</time></trkpt>
<trkpt lat="31.77964" lon="34.96627">
<ele>334</ele>
<time>2023-01-04T01:01:58Z</time></trkpt>
<trkpt lat="31.77997" lon="34.96572">
<ele>325</ele>
<time>2023-01-04T01:02:10Z</time></trkpt>
<trkpt lat="31.78005" lon="34.96553">
<ele>324</ele>
<time>2023-01-04T01:02:13Z</time></trkpt>
<trkpt lat="31.78013" lon="34.96539">
<ele>323</ele>
<time>2023-01-04T01:02:16Z</time></trkpt>
<trkpt lat="31.78047" lon="34.965">
<ele>317</ele>
<time>2023-01-04T01:02:26Z</time></trkpt>
<trkpt lat="31.78058" lon="34.9649">
<ele>315</ele>
<time>2023-01-04T01:02:28Z</time></trkpt>
<trkpt lat="31.78088" lon="34.9647">
<ele>311</ele>
<time>2023-01-04T01:02:35Z</time></trkpt>
<trkpt lat="31.78093" lon="34.96462">
<ele>310</ele>
<time>2023-01-04T01:02:37Z</time></trkpt>
<trkpt lat="31.78101" lon="34.96442">
<ele>308</ele>
<time>2023-01-04T01:02:41Z</time></trkpt>
<trkpt lat="31.7811" lon="34.96429">
<ele>306</ele>
<time>2023-01-04T01:02:44Z</time></trkpt>
<trkpt lat="31.78139" lon="34.96394">
<ele>303</ele>
<time>2023-01-04T01:02:52Z</time></trkpt>
<trkpt lat="31.78161" lon="34.96354">
<ele>300</ele>
<time>2023-01-04T01:03:00Z</time></trkpt>
<trkpt lat="31.78175" lon="34.96316">
<ele>299</ele>
<time>2023-01-04T01:03:07Z</time></trkpt>
<trkpt lat="31.78194" lon="34.96276">
<ele>300</ele>
<time>2023-01-04T01:03:15Z</time></trkpt>
<trkpt lat="31.78228" lon="34.96197">
<ele>300</ele>
<time>2023-01-04T01:03:30Z</time></trkpt>
<trkpt lat="31.78253" lon="34.96127">
<ele>300</ele>
<time>2023-01-04T01:03:43Z</time></trkpt>
<trkpt lat="31.78268" lon="34.96051">
<ele>302</ele>
<time>2023-01-04T01:03:56Z</time></trkpt>
<trkpt lat="31.78274" lon="34.96039">
<ele>301</ele>
<time>2023-01-04T01:03:59Z</time></trkpt>
<trkpt lat="31.78276" lon="34.96026">
<ele>301</ele>
<time>2023-01-04T01:04:01Z</time></trkpt>
<trkpt lat="31.78276" lon="34.96015">
<ele>301</ele>
<time>2023-01-04T01:04:03Z</time></trkpt>
<trkpt lat="31.78265" lon="34.95996">
<ele>304</ele>
<time>2023-01-04T01:04:07Z</time></trkpt>
<trkpt lat="31.78261" lon="34.95985">
<ele>306</ele>
<time>2023-01-04T01:04:09Z</time></trkpt>
<trkpt lat="31.78268" lon="34.95971">
<ele>305</ele>
<time>2023-01-04T01:04:11Z</time></trkpt>
<trkpt lat="31.78296" lon="34.95944">
<ele>301</ele>
<time>2023-01-04T01:04:19Z</time></trkpt>
<trkpt lat="31.78345" lon="34.95921">
<ele>293</ele>
<time>2023-01-04T01:04:29Z</time></trkpt>
<trkpt lat="31.784" lon="34.95889">
<ele>288</ele>
<time>2023-01-04T01:04:41Z</time></trkpt>
<trkpt lat="31.785" lon="34.95792">
<ele>289</ele>
<time>2023-01-04T01:05:07Z</time></trkpt>
<trkpt lat="31.78534" lon="34.95762">
<ele>292</ele>
<time>2023-01-04T01:05:16Z</time></trkpt>
<trkpt lat="31.78582" lon="34.95716">
<ele>293</ele>
<time>2023-01-04T01:05:28Z</time></trkpt>
<trkpt lat="31.78618" lon="34.95688">
<ele>293</ele>
<time>2023-01-04T01:05:37Z</time></trkpt>
<trkpt lat="31.78651" lon="34.95652">
<ele>292</ele>
<time>2023-01-04T01:05:46Z</time></trkpt>
<trkpt lat="31.78665" lon="34.95641">
<ele>292</ele>
<time>2023-01-04T01:05:49Z</time></trkpt>
<trkpt lat="31.78677" lon="34.95634">
<ele>292</ele>
<time>2023-01-04T01:05:52Z</time></trkpt>
<trkpt lat="31.78722" lon="34.95613">
<ele>289</ele>
<time>2023-01-04T01:06:02Z</time></trkpt>
<trkpt lat="31.78769" lon="34.95584">
<ele>287</ele>
<time>2023-01-04T01:06:12Z</time></trkpt>
<trkpt lat="31.7879" lon="34.95564">
<ele>284</ele>
<time>2023-01-04T01:06:18Z</time></trkpt>
<trkpt lat="31.78809" lon="34.95549">
<ele>282</ele>
<time>2023-01-04T01:06:22Z</time></trkpt>
<trkpt lat="31.78816" lon="34.9554">
<ele>282</ele>
<time>2023-01-04T01:06:25Z</time></trkpt>
<trkpt lat="31.78821" lon="34.9553">
<ele>282</ele>
<time>2023-01-04T01:06:26Z</time></trkpt>
<trkpt lat="31.78824" lon="34.9554">
<ele>281</ele>
<time>2023-01-04T01:06:28Z</time></trkpt>
<trkpt lat="31.78822" lon="34.95547">
<ele>281</ele>
<time>2023-01-04T01:06:30Z</time></trkpt>
<trkpt lat="31.78803" lon="34.9557">
<ele>283</ele>
<time>2023-01-04T01:06:35Z</time></trkpt>
<trkpt lat="31.78788" lon="34.95592">
<ele>284</ele>
<time>2023-01-04T01:06:40Z</time></trkpt>
<trkpt lat="31.78777" lon="34.95626">
<ele>281</ele>
<time>2023-01-04T01:06:46Z</time></trkpt>
<trkpt lat="31.78768" lon="34.95649">
<ele>279</ele>
<time>2023-01-04T01:06:50Z</time></trkpt>
<trkpt lat="31.78756" lon="34.9567">
<ele>278</ele>
<time>2023-01-04T01:06:55Z</time></trkpt>
<trkpt lat="31.78751" lon="34.95676">
<ele>278</ele>
<time>2023-01-04T01:06:56Z</time></trkpt>
<trkpt lat="31.78736" lon="34.95686">
<ele>279</ele>
<time>2023-01-04T01:07:00Z</time></trkpt>
<trkpt lat="31.78688" lon="34.957">
<ele>282</ele>
<time>2023-01-04T01:07:09Z</time></trkpt>
<trkpt lat="31.78673" lon="34.95709">
<ele>282</ele>
<time>2023-01-04T01:07:13Z</time></trkpt>
<trkpt lat="31.78669" lon="34.95714">
<ele>282</ele>
<time>2023-01-04T01:07:14Z</time></trkpt>
<trkpt lat="31.78667" lon="34.95723">
<ele>281</ele>
<time>2023-01-04T01:07:16Z</time></trkpt>
<trkpt lat="31.78668" lon="34.95731">
<ele>280</ele>
<time>2023-01-04T01:07:17Z</time></trkpt>
<trkpt lat="31.78673" lon="34.95745">
<ele>278</ele>
<time>2023-01-04T01:07:20Z</time></trkpt>
<trkpt lat="31.78674" lon="34.95759">
<ele>276</ele>
<time>2023-01-04T01:07:22Z</time></trkpt>
<trkpt lat="31.7867" lon="34.95768">
<ele>275</ele>
<time>2023-01-04T01:07:24Z</time></trkpt>
<trkpt lat="31.78663" lon="34.95774">
<ele>275</ele>
<time>2023-01-04T01:07:25Z</time></trkpt>
<trkpt lat="31.78647" lon="34.95783">
<ele>275</ele>
<time>2023-01-04T01:07:29Z</time></trkpt>
<trkpt lat="31.78623" lon="34.95788">
<ele>277</ele>
<time>2023-01-04T01:07:34Z</time></trkpt>
<trkpt lat="31.78601" lon="34.95796">
<ele>278</ele>
<time>2023-01-04T01:07:38Z</time></trkpt>
<trkpt lat="31.78575" lon="34.95816">
<ele>278</ele>
<time>2023-01-04T01:07:45Z</time></trkpt>
<trkpt lat="31.78569" lon="34.95827">
<ele>276</ele>
<time>2023-01-04T01:07:47Z</time></trkpt>
<trkpt lat="31.7857" lon="34.95836">
<ele>275</ele>
<time>2023-01-04T01:07:48Z</time></trkpt>
<trkpt lat="31.78575" lon="34.95842">
<ele>273</ele>
<time>2023-01-04T01:07:50Z</time></trkpt>
<trkpt lat="31.78584" lon="34.95848">
<ele>271</ele>
<time>2023-01-04T01:07:52Z</time></trkpt>
<trkpt lat="31.7859" lon="34.9585">
<ele>270</ele>
<time>2023-01-04T01:07:53Z</time></trkpt>
<trkpt lat="31.78609" lon="34.9585">
<ele>268</ele>
<time>2023-01-04T01:07:57Z</time></trkpt>
<trkpt lat="31.7866" lon="34.95837">
<ele>265</ele>
<time>2023-01-04T01:08:07Z</time></trkpt>
<trkpt lat="31.78694" lon="34.95833">
<ele>262</ele>
<time>2023-01-04T01:08:14Z</time></trkpt>
<trkpt lat="31.78704" lon="34.95835">
<ele>261</ele>
<time>2023-01-04T01:08:16Z</time></trkpt>
<trkpt lat="31.78713" lon="34.95844">
<ele>259</ele>
<time>2023-01-04T01:08:19Z</time></trkpt>
<trkpt lat="31.78674" lon="34.95873">
<ele>258</ele>
<time>2023-01-04T01:08:28Z</time></trkpt>
<trkpt lat="31.78618" lon="34.95922">
<ele>255</ele>
<time>2023-01-04T01:08:42Z</time></trkpt>
<trkpt lat="31.78586" lon="34.95943">
<ele>256</ele>
<time>2023-01-04T01:08:49Z</time></trkpt>
<trkpt lat="31.78578" lon="34.95951">
<ele>256</ele>
<time>2023-01-04T01:08:51Z</time></trkpt>
<trkpt lat="31.78572" lon="34.95959">
<ele>256</ele>
<time>2023-01-04T01:08:53Z</time></trkpt>
<trkpt lat="31.78569" lon="34.9597">
<ele>255</ele>
<time>2023-01-04T01:08:55Z</time></trkpt>
<trkpt lat="31.7857" lon="34.95986">
<ele>253</ele>
<time>2023-01-04T01:08:58Z</time></trkpt>
<trkpt lat="31.78584" lon="34.96031">
<ele>249</ele>
<time>2023-01-04T01:09:06Z</time></trkpt>
<trkpt lat="31.78591" lon="34.96065">
<ele>249</ele>
<time>2023-01-04T01:09:12Z</time></trkpt>
<trkpt lat="31.78591" lon="34.96073">
<ele>249</ele>
<time>2023-01-04T01:09:13Z</time></trkpt>
<trkpt lat="31.78578" lon="34.96137">
<ele>253</ele>
<time>2023-01-04T01:09:25Z</time></trkpt>
<trkpt lat="31.78585" lon="34.9616">
<ele>254</ele>
<time>2023-01-04T01:09:29Z</time></trkpt>
<trkpt lat="31.78592" lon="34.96169">
<ele>254</ele>
<time>2023-01-04T01:09:31Z</time></trkpt>
<trkpt lat="31.78606" lon="34.9618">
<ele>256</ele>
<time>2023-01-04T01:09:34Z</time></trkpt>
<trkpt lat="31.78619" lon="34.96185">
<ele>258</ele>
<time>2023-01-04T01:09:37Z</time></trkpt>
<trkpt lat="31.78637" lon="34.96189">
<ele>259</ele>
<time>2023-01-04T01:09:41Z</time></trkpt>
<trkpt lat="31.78673" lon="34.96204">
<ele>263</ele>
<time>2023-01-04T01:09:48Z</time></trkpt>
<trkpt lat="31.78737" lon="34.9624">
<ele>269</ele>
<time>2023-01-04T01:10:02Z</time></trkpt>
<trkpt lat="31.78737" lon="34.96239">
<ele>269</ele>
<time>2023-01-04T01:10:03Z</time></trkpt>
<trkpt lat="31.78768" lon="34.96255">
<ele>271</ele>
<time>2023-01-04T01:10:09Z</time></trkpt>
<trkpt lat="31.7879" lon="34.96263">
<ele>270</ele>
<time>2023-01-04T01:10:14Z</time></trkpt>
<trkpt lat="31.78801" lon="34.96271">
<ele>270</ele>
<time>2023-01-04T01:10:17Z</time></trkpt>
<trkpt lat="31.78806" lon="34.96279">
<ele>270</ele>
<time>2023-01-04T01:10:18Z</time></trkpt>
<trkpt lat="31.78807" lon="34.9629">
<ele>270</ele>
<time>2023-01-04T01:10:20Z</time></trkpt>
<trkpt lat="31.78804" lon="34.96308">
<ele>272</ele>
<time>2023-01-04T01:10:23Z</time></trkpt>
<trkpt lat="31.78799" lon="34.96321">
<ele>273</ele>
<time>2023-01-04T01:10:26Z</time></trkpt>
<trkpt lat="31.78748" lon="34.9641">
<ele>275</ele>
<time>2023-01-04T01:10:44Z</time></trkpt>
<trkpt lat="31.78711" lon="34.96459">
<ele>275</ele>
<time>2023-01-04T01:10:55Z</time></trkpt>
<trkpt lat="31.78701" lon="34.96466">
<ele>276</ele>
<time>2023-01-04T01:10:58Z</time></trkpt>
<trkpt lat="31.78683" lon="34.96471">
<ele>278</ele>
<time>2023-01-04T01:11:01Z</time></trkpt>
<trkpt lat="31.78675" lon="34.96475">
<ele>279</ele>
<time>2023-01-04T01:11:03Z</time></trkpt>
<trkpt lat="31.78665" lon="34.96485">
<ele>279</ele>
<time>2023-01-04T01:11:06Z</time></trkpt>
<trkpt lat="31.78661" lon="34.96494">
<ele>279</ele>
<time>2023-01-04T01:11:07Z</time></trkpt>
<trkpt lat="31.78661" lon="34.96506">
<ele>279</ele>
<time>2023-01-04T01:11:09Z</time></trkpt>
<trkpt lat="31.78667" lon="34.96516">
<ele>280</ele>
<time>2023-01-04T01:11:11Z</time></trkpt>
<trkpt lat="31.78714" lon="34.96501">
<ele>272</ele>
<time>2023-01-04T01:11:21Z</time></trkpt>
<trkpt lat="31.78748" lon="34.96496">
<ele>268</ele>
<time>2023-01-04T01:11:28Z</time></trkpt>
<trkpt lat="31.7876" lon="34.96493">
<ele>266</ele>
<time>2023-01-04T01:11:31Z</time></trkpt>
<trkpt lat="31.78807" lon="34.96472">
<ele>262</ele>
<time>2023-01-04T01:11:41Z</time></trkpt>
<trkpt lat="31.78873" lon="34.96479">
<ele>255</ele>
<time>2023-01-04T01:11:54Z</time></trkpt>
<trkpt lat="31.78935" lon="34.96472">
<ele>249</ele>
<time>2023-01-04T01:12:06Z</time></trkpt>
<trkpt lat="31.78963" lon="34.96464">
<ele>245</ele>
<time>2023-01-04T01:12:12Z</time></trkpt>
<trkpt lat="31.79008" lon="34.96442">
<ele>240</ele>
<time>2023-01-04T01:12:22Z</time></trkpt>
<trkpt lat="31.79018" lon="34.96436">
<ele>239</ele>
<time>2023-01-04T01:12:24Z</time></trkpt>
<trkpt lat="31.79078" lon="34.96409">
<ele>234</ele>
<time>2023-01-04T01:12:37Z</time></trkpt>
<trkpt lat="31.79121" lon="34.96397">
<ele>229</ele>
<time>2023-01-04T01:12:46Z</time></trkpt>
<trkpt lat="31.79144" lon="34.96394">
<ele>226</ele>
<time>2023-01-04T01:12:51Z</time></trkpt>
<trkpt lat="31.79166" lon="34.96384">
<ele>224</ele>
<time>2023-01-04T01:12:55Z</time></trkpt>
<trkpt lat="31.7918" lon="34.96374">
<ele>223</ele>
<time>2023-01-04T01:12:59Z</time></trkpt>
<trkpt lat="31.79201" lon="34.96353">
<ele>223</ele>
<time>2023-01-04T01:13:04Z</time></trkpt>
<trkpt lat="31.79224" lon="34.96325">
<ele>221</ele>
<time>2023-01-04T01:13:11Z</time></trkpt>
<trkpt lat="31.79248" lon="34.96301">
<ele>220</ele>
<time>2023-01-04T01:13:17Z</time></trkpt>
<trkpt lat="31.79287" lon="34.96269">
<ele>215</ele>
<time>2023-01-04T01:13:27Z</time></trkpt>
<trkpt lat="31.79348" lon="34.96201">
<ele>211</ele>
<time>2023-01-04T01:13:43Z</time></trkpt>
<trkpt lat="31.79383" lon="34.96172">
<ele>209</ele>
<time>2023-01-04T01:13:52Z</time></trkpt>
<trkpt lat="31.79404" lon="34.96148">
<ele>208</ele>
<time>2023-01-04T01:13:58Z</time></trkpt>
<trkpt lat="31.79423" lon="34.96121">
<ele>207</ele>
<time>2023-01-04T01:14:04Z</time></trkpt>
<trkpt lat="31.79437" lon="34.96117">
<ele>206</ele>
<time>2023-01-04T01:14:07Z</time></trkpt>
<trkpt lat="31.79449" lon="34.96109">
<ele>205</ele>
<time>2023-01-04T01:14:09Z</time></trkpt>
<trkpt lat="31.79456" lon="34.96098">
<ele>205</ele>
<time>2023-01-04T01:14:12Z</time></trkpt>
<trkpt lat="31.79469" lon="34.96072">
<ele>205</ele>
<time>2023-01-04T01:14:17Z</time></trkpt>
<trkpt lat="31.79476" lon="34.96065">
<ele>206</ele>
<time>2023-01-04T01:14:19Z</time></trkpt>
<trkpt lat="31.79483" lon="34.96063">
<ele>205</ele>
<time>2023-01-04T01:14:20Z</time></trkpt>
<trkpt lat="31.79498" lon="34.96068">
<ele>203</ele>
<time>2023-01-04T01:14:23Z</time></trkpt>
<trkpt lat="31.79511" lon="34.96075">
<ele>202</ele>
<time>2023-01-04T01:14:26Z</time></trkpt>
<trkpt lat="31.79546" lon="34.961">
<ele>200</ele>
<time>2023-01-04T01:14:34Z</time></trkpt>
<trkpt lat="31.79558" lon="34.96106">
<ele>200</ele>
<time>2023-01-04T01:14:37Z</time></trkpt>
<trkpt lat="31.79568" lon="34.96106">
<ele>200</ele>
<time>2023-01-04T01:14:39Z</time></trkpt>
<trkpt lat="31.79602" lon="34.96091">
<ele>199</ele>
<time>2023-01-04T01:14:46Z</time></trkpt>
<trkpt lat="31.7961" lon="34.96104">
<ele>201</ele>
<time>2023-01-04T01:14:49Z</time></trkpt>
<trkpt lat="31.7961" lon="34.96113">
<ele>201</ele>
<time>2023-01-04T01:14:51Z</time></trkpt>
<trkpt lat="31.79608" lon="34.96121">
<ele>202</ele>
<time>2023-01-04T01:14:52Z</time></trkpt>
<trkpt lat="31.79604" lon="34.96128">
<ele>202</ele>
<time>2023-01-04T01:14:53Z</time></trkpt>
<trkpt lat="31.79587" lon="34.96143">
<ele>202</ele>
<time>2023-01-04T01:14:58Z</time></trkpt>
<trkpt lat="31.79575" lon="34.96157">
<ele>202</ele>
<time>2023-01-04T01:15:01Z</time></trkpt>
<trkpt lat="31.79557" lon="34.96185">
<ele>203</ele>
<time>2023-01-04T01:15:07Z</time></trkpt>
<trkpt lat="31.79555" lon="34.96193">
<ele>203</ele>
<time>2023-01-04T01:15:08Z</time></trkpt>
<trkpt lat="31.79557" lon="34.9621">
<ele>205</ele>
<time>2023-01-04T01:15:11Z</time></trkpt>
<trkpt lat="31.7957" lon="34.96254">
<ele>209</ele>
<time>2023-01-04T01:15:19Z</time></trkpt>
<trkpt lat="31.79577" lon="34.96308">
<ele>212</ele>
<time>2023-01-04T01:15:29Z</time></trkpt>
<trkpt lat="31.7958" lon="34.96407">
<ele>216</ele>
<time>2023-01-04T01:15:45Z</time></trkpt>
<trkpt lat="31.79568" lon="34.96452">
<ele>216</ele>
<time>2023-01-04T01:15:54Z</time></trkpt>
<trkpt lat="31.79563" lon="34.96462">
<ele>216</ele>
<time>2023-01-04T01:15:55Z</time></trkpt>
<trkpt lat="31.79552" lon="34.96471">
<ele>217</ele>
<time>2023-01-04T01:15:58Z</time></trkpt>
<trkpt lat="31.79526" lon="34.96485">
<ele>219</ele>
<time>2023-01-04T01:16:04Z</time></trkpt>
<trkpt lat="31.79508" lon="34.96525">
<ele>222</ele>
<time>2023-01-04T01:16:12Z</time></trkpt>
<trkpt lat="31.79494" lon="34.96544">
<ele>224</ele>
<time>2023-01-04T01:16:16Z</time></trkpt>
<trkpt lat="31.79448" lon="34.96645">
<ele>233</ele>
<time>2023-01-04T01:16:35Z</time></trkpt>
<trkpt lat="31.7943" lon="34.96676">
<ele>239</ele>
<time>2023-01-04T01:16:42Z</time></trkpt>
<trkpt lat="31.79426" lon="34.96695">
<ele>240</ele>
<time>2023-01-04T01:16:45Z</time></trkpt>
<trkpt lat="31.79425" lon="34.96708">
<ele>240</ele>
<time>2023-01-04T01:16:47Z</time></trkpt>
<trkpt lat="31.79427" lon="34.9675">
<ele>240</ele>
<time>2023-01-04T01:16:55Z</time></trkpt>
<trkpt lat="31.79424" lon="34.96785">
<ele>240</ele>
<time>2023-01-04T01:17:01Z</time></trkpt>
<trkpt lat="31.79424" lon="34.96831">
<ele>239</ele>
<time>2023-01-04T01:17:08Z</time></trkpt>
<trkpt lat="31.79414" lon="34.96921">
<ele>238</ele>
<time>2023-01-04T01:17:24Z</time></trkpt>
<trkpt lat="31.79416" lon="34.96935">
<ele>238</ele>
<time>2023-01-04T01:17:26Z</time></trkpt>
<trkpt lat="31.79422" lon="34.96947">
<ele>238</ele>
<time>2023-01-04T01:17:29Z</time></trkpt>
<trkpt lat="31.7943" lon="34.96959">
<ele>237</ele>
<time>2023-01-04T01:17:31Z</time></trkpt>
<trkpt lat="31.7944" lon="34.96966">
<ele>236</ele>
<time>2023-01-04T01:17:34Z</time></trkpt>
<trkpt lat="31.79454" lon="34.9697">
<ele>233</ele>
<time>2023-01-04T01:17:36Z</time></trkpt>
<trkpt lat="31.79479" lon="34.96972">
<ele>229</ele>
<time>2023-01-04T01:17:41Z</time></trkpt>
<trkpt lat="31.79505" lon="34.96985">
<ele>224</ele>
<time>2023-01-04T01:17:47Z</time></trkpt>
<trkpt lat="31.79518" lon="34.96997">
<ele>222</ele>
<time>2023-01-04T01:17:50Z</time></trkpt>
<trkpt lat="31.79531" lon="34.97013">
<ele>221</ele>
<time>2023-01-04T01:17:54Z</time></trkpt>
<trkpt lat="31.79543" lon="34.97038">
<ele>221</ele>
<time>2023-01-04T01:17:59Z</time></trkpt>
<trkpt lat="31.79579" lon="34.97082">
<ele>218</ele>
<time>2023-01-04T01:18:09Z</time></trkpt>
<trkpt lat="31.79596" lon="34.97106">
<ele>216</ele>
<time>2023-01-04T01:18:15Z</time></trkpt>
<trkpt lat="31.79601" lon="34.97122">
<ele>216</ele>
<time>2023-01-04T01:18:18Z</time></trkpt>
<trkpt lat="31.79604" lon="34.97153">
<ele>217</ele>
<time>2023-01-04T01:18:23Z</time></trkpt>
<trkpt lat="31.79594" lon="34.97185">
<ele>218</ele>
<time>2023-01-04T01:18:29Z</time></trkpt>
<trkpt lat="31.79584" lon="34.97206">
<ele>217</ele>
<time>2023-01-04T01:18:33Z</time></trkpt>
<trkpt lat="31.7957" lon="34.97228">
<ele>219</ele>
<time>2023-01-04T01:18:38Z</time></trkpt>
<trkpt lat="31.79567" lon="34.97237">
<ele>218</ele>
<time>2023-01-04T01:18:39Z</time></trkpt>
<trkpt lat="31.79559" lon="34.97271">
<ele>218</ele>
<time>2023-01-04T01:18:45Z</time></trkpt>
<trkpt lat="31.79557" lon="34.97315">
<ele>215</ele>
<time>2023-01-04T01:18:53Z</time></trkpt>
<trkpt lat="31.79551" lon="34.97396">
<ele>215</ele>
<time>2023-01-04T01:19:07Z</time></trkpt>
<trkpt lat="31.79551" lon="34.97469">
<ele>216</ele>
<time>2023-01-04T01:19:19Z</time></trkpt>
<trkpt lat="31.79536" lon="34.97486">
<ele>219</ele>
<time>2023-01-04T01:19:23Z</time></trkpt>
<trkpt lat="31.7953" lon="34.97519">
<ele>219</ele>
<time>2023-01-04T01:19:29Z</time></trkpt>
<trkpt lat="31.79536" lon="34.97545">
<ele>219</ele>
<time>2023-01-04T01:19:34Z</time></trkpt>
<trkpt lat="31.79531" lon="34.97547">
<ele>219</ele>
<time>2023-01-04T01:19:35Z</time></trkpt>
<trkpt lat="31.79504" lon="34.97594">
<ele>220</ele>
<time>2023-01-04T01:19:44Z</time></trkpt>
<trkpt lat="31.79482" lon="34.97625">
<ele>222</ele>
<time>2023-01-04T01:19:51Z</time></trkpt>
<trkpt lat="31.79519" lon="34.97653">
<ele>218</ele>
<time>2023-01-04T01:20:00Z</time></trkpt>
<trkpt lat="31.7953" lon="34.97666">
<ele>218</ele>
<time>2023-01-04T01:20:03Z</time></trkpt>
<trkpt lat="31.79532" lon="34.97707">
<ele>220</ele>
<time>2023-01-04T01:20:10Z</time></trkpt>
<trkpt lat="31.79563" lon="34.97728">
<ele>222</ele>
<time>2023-01-04T01:20:17Z</time></trkpt>
<trkpt lat="31.79579" lon="34.97733">
<ele>223</ele>
<time>2023-01-04T01:20:21Z</time></trkpt>
<trkpt lat="31.79593" lon="34.97735">
<ele>224</ele>
<time>2023-01-04T01:20:23Z</time></trkpt>
<trkpt lat="31.79608" lon="34.97731">
<ele>225</ele>
<time>2023-01-04T01:20:26Z</time></trkpt>
<trkpt lat="31.79619" lon="34.97725">
<ele>226</ele>
<time>2023-01-04T01:20:29Z</time></trkpt>
<trkpt lat="31.79632" lon="34.97714">
<ele>227</ele>
<time>2023-01-04T01:20:32Z</time></trkpt>
<trkpt lat="31.79709" lon="34.97638">
<ele>231</ele>
<time>2023-01-04T01:20:52Z</time></trkpt>
<trkpt lat="31.79748" lon="34.97601">
<ele>232</ele>
<time>2023-01-04T01:21:02Z</time></trkpt>
<trkpt lat="31.79801" lon="34.9758">
<ele>232</ele>
<time>2023-01-04T01:21:13Z</time></trkpt>
<trkpt lat="31.79818" lon="34.97579">
<ele>232</ele>
<time>2023-01-04T01:21:17Z</time></trkpt>
<trkpt lat="31.79832" lon="34.97581">
<ele>233</ele>
<time>2023-01-04T01:21:20Z</time></trkpt>
<trkpt lat="31.79843" lon="34.97585">
<ele>233</ele>
<time>2023-01-04T01:21:22Z</time></trkpt>
<trkpt lat="31.79861" lon="34.97595">
<ele>232</ele>
<time>2023-01-04T01:21:26Z</time></trkpt>
<trkpt lat="31.79883" lon="34.97615">
<ele>232</ele>
<time>2023-01-04T01:21:32Z</time></trkpt>
<trkpt lat="31.79901" lon="34.97638">
<ele>233</ele>
<time>2023-01-04T01:21:37Z</time></trkpt>
<trkpt lat="31.79923" lon="34.97672">
<ele>234</ele>
<time>2023-01-04T01:21:44Z</time></trkpt>
<trkpt lat="31.79968" lon="34.97732">
<ele>235</ele>
<time>2023-01-04T01:21:58Z</time></trkpt>
<trkpt lat="31.79982" lon="34.97746">
<ele>235</ele>
<time>2023-01-04T01:22:01Z</time></trkpt>
<trkpt lat="31.79993" lon="34.97753">
<ele>235</ele>
<time>2023-01-04T01:22:04Z</time></trkpt>
<trkpt lat="31.80008" lon="34.97759">
<ele>235</ele>
<time>2023-01-04T01:22:07Z</time></trkpt>
<trkpt lat="31.80027" lon="34.97756">
<ele>234</ele>
<time>2023-01-04T01:22:11Z</time></trkpt>
<trkpt lat="31.80043" lon="34.97746">
<ele>234</ele>
<time>2023-01-04T01:22:15Z</time></trkpt>
<trkpt lat="31.80058" lon="34.97818">
<ele>237</ele>
<time>2023-01-04T01:22:27Z</time></trkpt>
<trkpt lat="31.80054" lon="34.97837">
<ele>239</ele>
<time>2023-01-04T01:22:31Z</time></trkpt>
<trkpt lat="31.80013" lon="34.97896">
<ele>243</ele>
<time>2023-01-04T01:22:44Z</time></trkpt>
<trkpt lat="31.80001" lon="34.97917">
<ele>244</ele>
<time>2023-01-04T01:22:48Z</time></trkpt>
<trkpt lat="31.79998" lon="34.97934">
<ele>245</ele>
<time>2023-01-04T01:22:51Z</time></trkpt>
<trkpt lat="31.79993" lon="34.97949">
<ele>246</ele>
<time>2023-01-04T01:22:54Z</time></trkpt>
<trkpt lat="31.79988" lon="34.97978">
<ele>248</ele>
<time>2023-01-04T01:22:59Z</time></trkpt>
<trkpt lat="31.79998" lon="34.98014">
<ele>247</ele>
<time>2023-01-04T01:23:05Z</time></trkpt>
<trkpt lat="31.80016" lon="34.98053">
<ele>248</ele>
<time>2023-01-04T01:23:13Z</time></trkpt>
<trkpt lat="31.80016" lon="34.98052">
<ele>248</ele>
<time>2023-01-04T01:23:13Z</time></trkpt>
<trkpt lat="31.80025" lon="34.98069">
<ele>249</ele>
<time>2023-01-04T01:23:16Z</time></trkpt>
<trkpt lat="31.80027" lon="34.98082">
<ele>249</ele>
<time>2023-01-04T01:23:18Z</time></trkpt>
<trkpt lat="31.80036" lon="34.98105">
<ele>251</ele>
<time>2023-01-04T01:23:23Z</time></trkpt>
<trkpt lat="31.80068" lon="34.98161">
<ele>252</ele>
<time>2023-01-04T01:23:34Z</time></trkpt>
<trkpt lat="31.8007" lon="34.9817">
<ele>253</ele>
<time>2023-01-04T01:23:36Z</time></trkpt>
<trkpt lat="31.80072" lon="34.98199">
<ele>254</ele>
<time>2023-01-04T01:23:41Z</time></trkpt>
<trkpt lat="31.8007" lon="34.9822">
<ele>255</ele>
<time>2023-01-04T01:23:44Z</time></trkpt>
<trkpt lat="31.80066" lon="34.98296">
<ele>259</ele>
<time>2023-01-04T01:23:57Z</time></trkpt>
<trkpt lat="31.80067" lon="34.98352">
<ele>262</ele>
<time>2023-01-04T01:24:07Z</time></trkpt>
<trkpt lat="31.80064" lon="34.98372">
<ele>263</ele>
<time>2023-01-04T01:24:10Z</time></trkpt>
<trkpt lat="31.80053" lon="34.98418">
<ele>268</ele>
<time>2023-01-04T01:24:19Z</time></trkpt>
<trkpt lat="31.80045" lon="34.98446">
<ele>269</ele>
<time>2023-01-04T01:24:24Z</time></trkpt>
<trkpt lat="31.80014" lon="34.98532">
<ele>271</ele>
<time>2023-01-04T01:24:39Z</time></trkpt>
<trkpt lat="31.80004" lon="34.98553">
<ele>272</ele>
<time>2023-01-04T01:24:44Z</time></trkpt>
<trkpt lat="31.7993" lon="34.98664">
<ele>285</ele>
<time>2023-01-04T01:25:08Z</time></trkpt>
<trkpt lat="31.79872" lon="34.98795">
<ele>290</ele>
<time>2023-01-04T01:25:33Z</time></trkpt>
<trkpt lat="31.79863" lon="34.98809">
<ele>290</ele>
<time>2023-01-04T01:25:36Z</time></trkpt>
<trkpt lat="31.79844" lon="34.98829">
<ele>289</ele>
<time>2023-01-04T01:25:41Z</time></trkpt>
<trkpt lat="31.79839" lon="34.9884">
<ele>288</ele>
<time>2023-01-04T01:25:43Z</time></trkpt>
<trkpt lat="31.79835" lon="34.98852">
<ele>289</ele>
<time>2023-01-04T01:25:45Z</time></trkpt>
<trkpt lat="31.7985" lon="34.98892">
<ele>291</ele>
<time>2023-01-04T01:25:53Z</time></trkpt>
<trkpt lat="31.79857" lon="34.98902">
<ele>292</ele>
<time>2023-01-04T01:25:55Z</time></trkpt>
<trkpt lat="31.79865" lon="34.9891">
<ele>292</ele>
<time>2023-01-04T01:25:57Z</time></trkpt>
<trkpt lat="31.79879" lon="34.98912">
<ele>293</ele>
<time>2023-01-04T01:26:00Z</time></trkpt>
<trkpt lat="31.79886" lon="34.98909">
<ele>293</ele>
<time>2023-01-04T01:26:01Z</time></trkpt>
<trkpt lat="31.79891" lon="34.98903">
<ele>293</ele>
<time>2023-01-04T01:26:03Z</time></trkpt>
<trkpt lat="31.79904" lon="34.98878">
<ele>292</ele>
<time>2023-01-04T01:26:08Z</time></trkpt>
<trkpt lat="31.79922" lon="34.98846">
<ele>292</ele>
<time>2023-01-04T01:26:14Z</time></trkpt>
<trkpt lat="31.79945" lon="34.98818">
<ele>294</ele>
<time>2023-01-04T01:26:21Z</time></trkpt>
<trkpt lat="31.79966" lon="34.98803">
<ele>296</ele>
<time>2023-01-04T01:26:26Z</time></trkpt>
<trkpt lat="31.8001" lon="34.98775">
<ele>298</ele>
<time>2023-01-04T01:26:36Z</time></trkpt>
<trkpt lat="31.80027" lon="34.98767">
<ele>298</ele>
<time>2023-01-04T01:26:39Z</time></trkpt>
<trkpt lat="31.80052" lon="34.98762">
<ele>300</ele>
<time>2023-01-04T01:26:44Z</time></trkpt>
<trkpt lat="31.80066" lon="34.98762">
<ele>302</ele>
<time>2023-01-04T01:26:47Z</time></trkpt>
<trkpt lat="31.80087" lon="34.98769">
<ele>305</ele>
<time>2023-01-04T01:26:52Z</time></trkpt>
<trkpt lat="31.80106" lon="34.98781">
<ele>309</ele>
<time>2023-01-04T01:26:56Z</time></trkpt>
<trkpt lat="31.80121" lon="34.98792">
<ele>312</ele>
<time>2023-01-04T01:27:00Z</time></trkpt>
<trkpt lat="31.80147" lon="34.98816">
<ele>319</ele>
<time>2023-01-04T01:27:06Z</time></trkpt>
<trkpt lat="31.80165" lon="34.98829">
<ele>323</ele>
<time>2023-01-04T01:27:10Z</time></trkpt>
<trkpt lat="31.80179" lon="34.98832">
<ele>326</ele>
<time>2023-01-04T01:27:13Z</time></trkpt>
<trkpt lat="31.80186" lon="34.9883">
<ele>327</ele>
<time>2023-01-04T01:27:15Z</time></trkpt>
<trkpt lat="31.80192" lon="34.98826">
<ele>327</ele>
<time>2023-01-04T01:27:16Z</time></trkpt>
<trkpt lat="31.802" lon="34.98818">
<ele>327</ele>
<time>2023-01-04T01:27:18Z</time></trkpt>
<trkpt lat="31.80215" lon="34.98789">
<ele>322</ele>
<time>2023-01-04T01:27:24Z</time></trkpt>
<trkpt lat="31.80228" lon="34.98774">
<ele>321</ele>
<time>2023-01-04T01:27:28Z</time></trkpt>
<trkpt lat="31.80249" lon="34.98767">
<ele>324</ele>
<time>2023-01-04T01:27:32Z</time></trkpt>
<trkpt lat="31.80274" lon="34.98766">
<ele>328</ele>
<time>2023-01-04T01:27:37Z</time></trkpt>
<trkpt lat="31.80304" lon="34.98759">
<ele>331</ele>
<time>2023-01-04T01:27:43Z</time></trkpt>
<trkpt lat="31.80316" lon="34.98754">
<ele>332</ele>
<time>2023-01-04T01:27:46Z</time></trkpt>
<trkpt lat="31.80336" lon="34.98738">
<ele>333</ele>
<time>2023-01-04T01:27:51Z</time></trkpt>
<trkpt lat="31.80345" lon="34.98724">
<ele>332</ele>
<time>2023-01-04T01:27:53Z</time></trkpt>
<trkpt lat="31.80354" lon="34.98716">
<ele>333</ele>
<time>2023-01-04T01:27:56Z</time></trkpt>
<trkpt lat="31.80386" lon="34.98676">
<ele>334</ele>
<time>2023-01-04T01:28:05Z</time></trkpt>
<trkpt lat="31.80394" lon="34.98662">
<ele>334</ele>
<time>2023-01-04T01:28:08Z</time></trkpt>
<trkpt lat="31.80403" lon="34.98639">
<ele>336</ele>
<time>2023-01-04T01:28:12Z</time></trkpt>
<trkpt lat="31.8041" lon="34.98625">
<ele>337</ele>
<time>2023-01-04T01:28:15Z</time></trkpt>
<trkpt lat="31.80416" lon="34.98619">
<ele>338</ele>
<time>2023-01-04T01:28:17Z</time></trkpt>
<trkpt lat="31.80426" lon="34.98615">
<ele>338</ele>
<time>2023-01-04T01:28:19Z</time></trkpt>
<trkpt lat="31.80433" lon="34.98614">
<ele>337</ele>
<time>2023-01-04T01:28:20Z</time></trkpt>
<trkpt lat="31.8044" lon="34.98617">
<ele>337</ele>
<time>2023-01-04T01:28:22Z</time></trkpt>
<trkpt lat="31.80446" lon="34.98621">
<ele>337</ele>
<time>2023-01-04T01:28:23Z</time></trkpt>
<trkpt lat="31.80451" lon="34.98628">
<ele>337</ele>
<time>2023-01-04T01:28:25Z</time></trkpt>
<trkpt lat="31.80456" lon="34.98648">
<ele>338</ele>
<time>2023-01-04T01:28:28Z</time></trkpt>
<trkpt lat="31.80457" lon="34.98661">
<ele>338</ele>
<time>2023-01-04T01:28:30Z</time></trkpt>
<trkpt lat="31.80457" lon="34.98708">
<ele>341</ele>
<time>2023-01-04T01:28:38Z</time></trkpt>
<trkpt lat="31.80465" lon="34.98792">
<ele>345</ele>
<time>2023-01-04T01:28:53Z</time></trkpt>
<trkpt lat="31.80465" lon="34.98809">
<ele>345</ele>
<time>2023-01-04T01:28:56Z</time></trkpt>
<trkpt lat="31.80463" lon="34.98826">
<ele>346</ele>
<time>2023-01-04T01:28:59Z</time></trkpt>
<trkpt lat="31.80457" lon="34.98841">
<ele>347</ele>
<time>2023-01-04T01:29:01Z</time></trkpt>
<trkpt lat="31.80429" lon="34.9889">
<ele>350</ele>
<time>2023-01-04T01:29:11Z</time></trkpt>
<trkpt lat="31.80402" lon="34.98946">
<ele>351</ele>
<time>2023-01-04T01:29:22Z</time></trkpt>
<trkpt lat="31.80379" lon="34.99008">
<ele>350</ele>
<time>2023-01-04T01:29:34Z</time></trkpt>
<trkpt lat="31.80364" lon="34.99056">
<ele>351</ele>
<time>2023-01-04T01:29:43Z</time></trkpt>
<trkpt lat="31.80358" lon="34.99093">
<ele>351</ele>
<time>2023-01-04T01:29:49Z</time></trkpt>
<trkpt lat="31.80359" lon="34.99119">
<ele>352</ele>
<time>2023-01-04T01:29:54Z</time></trkpt>
<trkpt lat="31.80365" lon="34.99134">
<ele>353</ele>
<time>2023-01-04T01:29:56Z</time></trkpt>
<trkpt lat="31.80377" lon="34.99147">
<ele>353</ele>
<time>2023-01-04T01:30:00Z</time></trkpt>
<trkpt lat="31.8039" lon="34.99152">
<ele>353</ele>
<time>2023-01-04T01:30:02Z</time></trkpt>
<trkpt lat="31.80417" lon="34.99155">
<ele>352</ele>
<time>2023-01-04T01:30:08Z</time></trkpt>
<trkpt lat="31.80436" lon="34.99148">
<ele>352</ele>
<time>2023-01-04T01:30:12Z</time></trkpt>
<trkpt lat="31.80555" lon="34.99067">
<ele>344</ele>
<time>2023-01-04T01:30:39Z</time></trkpt>
<trkpt lat="31.80608" lon="34.9905">
<ele>343</ele>
<time>2023-01-04T01:30:50Z</time></trkpt>
<trkpt lat="31.80633" lon="34.99047">
<ele>343</ele>
<time>2023-01-04T01:30:55Z</time></trkpt>
<trkpt lat="31.80678" lon="34.99045">
<ele>342</ele>
<time>2023-01-04T01:31:04Z</time></trkpt>
<trkpt lat="31.80693" lon="34.99052">
<ele>342</ele>
<time>2023-01-04T01:31:08Z</time></trkpt>
<trkpt lat="31.80718" lon="34.99072">
<ele>342</ele>
<time>2023-01-04T01:31:14Z</time></trkpt>
<trkpt lat="31.80733" lon="34.99092">
<ele>341</ele>
<time>2023-01-04T01:31:18Z</time></trkpt>
<trkpt lat="31.80755" lon="34.99129">
<ele>340</ele>
<time>2023-01-04T01:31:26Z</time></trkpt>
<trkpt lat="31.80769" lon="34.99145">
<ele>340</ele>
<time>2023-01-04T01:31:30Z</time></trkpt>
<trkpt lat="31.80788" lon="34.99152">
<ele>340</ele>
<time>2023-01-04T01:31:34Z</time></trkpt>
<trkpt lat="31.80808" lon="34.99142">
<ele>338</ele>
<time>2023-01-04T01:31:38Z</time></trkpt>
<trkpt lat="31.80947" lon="34.99024">
<ele>333</ele>
<time>2023-01-04T01:32:12Z</time></trkpt>
<trkpt lat="31.81023" lon="34.98966">
<ele>331</ele>
<time>2023-01-04T01:32:31Z</time></trkpt>
<trkpt lat="31.81041" lon="34.98957">
<ele>331</ele>
<time>2023-01-04T01:32:35Z</time></trkpt>
<trkpt lat="31.8106" lon="34.98954">
<ele>331</ele>
<time>2023-01-04T01:32:38Z</time></trkpt>
<trkpt lat="31.81078" lon="34.98954">
<ele>332</ele>
<time>2023-01-04T01:32:42Z</time></trkpt>
<trkpt lat="31.81112" lon="34.98959">
<ele>331</ele>
<time>2023-01-04T01:32:49Z</time></trkpt>
<trkpt lat="31.81159" lon="34.98931">
<ele>330</ele>
<time>2023-01-04T01:32:59Z</time></trkpt>
<trkpt lat="31.81174" lon="34.98925">
<ele>331</ele>
<time>2023-01-04T01:33:03Z</time></trkpt>
<trkpt lat="31.81217" lon="34.98913">
<ele>332</ele>
<time>2023-01-04T01:33:11Z</time></trkpt>
<trkpt lat="31.81342" lon="34.98934">
<ele>328</ele>
<time>2023-01-04T01:33:37Z</time></trkpt>
<trkpt lat="31.81421" lon="34.98964">
<ele>326</ele>
<time>2023-01-04T01:33:53Z</time></trkpt>
<trkpt lat="31.81429" lon="34.98969">
<ele>326</ele>
<time>2023-01-04T01:33:55Z</time></trkpt>
<trkpt lat="31.81429" lon="34.98968">
<ele>326</ele>
<time>2023-01-04T01:33:55Z</time></trkpt>
<trkpt lat="31.8152" lon="34.99021">
<ele>322</ele>
<time>2023-01-04T01:34:16Z</time></trkpt>
<trkpt lat="31.81575" lon="34.99037">
<ele>321</ele>
<time>2023-01-04T01:34:27Z</time></trkpt>
<trkpt lat="31.81598" lon="34.9903">
<ele>321</ele>
<time>2023-01-04T01:34:32Z</time></trkpt>
<trkpt lat="31.81667" lon="34.99018">
<ele>315</ele>
<time>2023-01-04T01:34:46Z</time></trkpt>
<trkpt lat="31.81736" lon="34.99001">
<ele>310</ele>
<time>2023-01-04T01:35:00Z</time></trkpt>
<trkpt lat="31.81749" lon="34.98961">
<ele>309</ele>
<time>2023-01-04T01:35:07Z</time></trkpt>
<trkpt lat="31.81746" lon="34.98933">
<ele>309</ele>
<time>2023-01-04T01:35:12Z</time></trkpt>
<trkpt lat="31.81734" lon="34.98892">
<ele>310</ele>
<time>2023-01-04T01:35:19Z</time></trkpt>
<trkpt lat="31.81628" lon="34.98827">
<ele>316</ele>
<time>2023-01-04T01:35:43Z</time></trkpt>
<trkpt lat="31.81628" lon="34.98826">
<ele>316</ele>
<time>2023-01-04T01:35:44Z</time></trkpt>
<trkpt lat="31.81622" lon="34.98823">
<ele>317</ele>
<time>2023-01-04T01:35:45Z</time></trkpt>
<trkpt lat="31.81608" lon="34.98806">
<ele>318</ele>
<time>2023-01-04T01:35:49Z</time></trkpt>
<trkpt lat="31.81602" lon="34.98784">
<ele>318</ele>
<time>2023-01-04T01:35:53Z</time></trkpt>
<trkpt lat="31.81601" lon="34.98754">
<ele>317</ele>
<time>2023-01-04T01:35:58Z</time></trkpt>
<trkpt lat="31.81617" lon="34.98528">
<ele>315</ele>
<time>2023-01-04T01:36:37Z</time></trkpt>
<trkpt lat="31.81617" lon="34.98495">
<ele>315</ele>
<time>2023-01-04T01:36:42Z</time></trkpt>
<trkpt lat="31.81612" lon="34.98417">
<ele>314</ele>
<time>2023-01-04T01:36:55Z</time></trkpt>
<trkpt lat="31.81597" lon="34.9834">
<ele>313</ele>
<time>2023-01-04T01:37:09Z</time></trkpt>
<trkpt lat="31.81597" lon="34.98257">
<ele>309</ele>
<time>2023-01-04T01:37:23Z</time></trkpt>
<trkpt lat="31.81605" lon="34.98185">
<ele>304</ele>
<time>2023-01-04T01:37:35Z</time></trkpt>
<trkpt lat="31.81615" lon="34.98162">
<ele>302</ele>
<time>2023-01-04T01:37:40Z</time></trkpt>
<trkpt lat="31.81617" lon="34.98154">
<ele>302</ele>
<time>2023-01-04T01:37:41Z</time></trkpt>
<trkpt lat="31.81647" lon="34.98163">
<ele>302</ele>
<time>2023-01-04T01:37:47Z</time></trkpt>
<trkpt lat="31.81677" lon="34.98181">
<ele>302</ele>
<time>2023-01-04T01:37:54Z</time></trkpt>
<trkpt lat="31.8169" lon="34.98186">
<ele>300</ele>
<time>2023-01-04T01:37:57Z</time></trkpt>
<trkpt lat="31.81697" lon="34.98184">
<ele>299</ele>
<time>2023-01-04T01:37:58Z</time></trkpt>
<trkpt lat="31.81696" lon="34.9821">
<ele>302</ele>
<time>2023-01-04T01:38:03Z</time></trkpt>
<trkpt lat="31.81705" lon="34.98238">
<ele>303</ele>
<time>2023-01-04T01:38:08Z</time></trkpt>
<trkpt lat="31.81714" lon="34.98256">
<ele>303</ele>
<time>2023-01-04T01:38:11Z</time></trkpt>
<trkpt lat="31.81729" lon="34.9828">
<ele>303</ele>
<time>2023-01-04T01:38:17Z</time></trkpt>
<trkpt lat="31.8175" lon="34.98303">
<ele>303</ele>
<time>2023-01-04T01:38:22Z</time></trkpt>
<trkpt lat="31.81793" lon="34.98333">
<ele>300</ele>
<time>2023-01-04T01:38:32Z</time></trkpt>
<trkpt lat="31.818" lon="34.98343">
<ele>299</ele>
<time>2023-01-04T01:38:35Z</time></trkpt>
<trkpt lat="31.8181" lon="34.98361">
<ele>299</ele>
<time>2023-01-04T01:38:38Z</time></trkpt>
<trkpt lat="31.81834" lon="34.98384">
<ele>297</ele>
<time>2023-01-04T01:38:44Z</time></trkpt>
<trkpt lat="31.81834" lon="34.98383">
<ele>297</ele>
<time>2023-01-04T01:38:45Z</time></trkpt>
<trkpt lat="31.81854" lon="34.98415">
<ele>297</ele>
<time>2023-01-04T01:38:51Z</time></trkpt>
<trkpt lat="31.8185" lon="34.98457">
<ele>296</ele>
<time>2023-01-04T01:38:59Z</time></trkpt>
<trkpt lat="31.8185" lon="34.98465">
<ele>295</ele>
<time>2023-01-04T01:39:00Z</time></trkpt>
<trkpt lat="31.81855" lon="34.98472">
<ele>295</ele>
<time>2023-01-04T01:39:01Z</time></trkpt>
<trkpt lat="31.81867" lon="34.98481">
<ele>294</ele>
<time>2023-01-04T01:39:04Z</time></trkpt>
<trkpt lat="31.81872" lon="34.98487">
<ele>293</ele>
<time>2023-01-04T01:39:06Z</time></trkpt>
<trkpt lat="31.81887" lon="34.98539">
<ele>289</ele>
<time>2023-01-04T01:39:15Z</time></trkpt>
<trkpt lat="31.81905" lon="34.98591">
<ele>283</ele>
<time>2023-01-04T01:39:25Z</time></trkpt>
<trkpt lat="31.81909" lon="34.98611">
<ele>281</ele>
<time>2023-01-04T01:39:28Z</time></trkpt>
<trkpt lat="31.81905" lon="34.98628">
<ele>280</ele>
<time>2023-01-04T01:39:31Z</time></trkpt>
<trkpt lat="31.81899" lon="34.98647">
<ele>278</ele>
<time>2023-01-04T01:39:35Z</time></trkpt>
<trkpt lat="31.81898" lon="34.98656">
<ele>277</ele>
<time>2023-01-04T01:39:36Z</time></trkpt>
<trkpt lat="31.81903" lon="34.98676">
<ele>275</ele>
<time>2023-01-04T01:39:40Z</time></trkpt>
<trkpt lat="31.81922" lon="34.98707">
<ele>273</ele>
<time>2023-01-04T01:39:46Z</time></trkpt>
<trkpt lat="31.81934" lon="34.98736">
<ele>272</ele>
<time>2023-01-04T01:39:52Z</time></trkpt>
<trkpt lat="31.8195" lon="34.98756">
<ele>272</ele>
<time>2023-01-04T01:39:56Z</time></trkpt>
<trkpt lat="31.81962" lon="34.98781">
<ele>270</ele>
<time>2023-01-04T01:40:01Z</time></trkpt>
<trkpt lat="31.81981" lon="34.98808">
<ele>267</ele>
<time>2023-01-04T01:40:07Z</time></trkpt>
<trkpt lat="31.82005" lon="34.98837">
<ele>262</ele>
<time>2023-01-04T01:40:14Z</time></trkpt>
<trkpt lat="31.82035" lon="34.98852">
<ele>261</ele>
<time>2023-01-04T01:40:21Z</time></trkpt>
<trkpt lat="31.8206" lon="34.98877">
<ele>258</ele>
<time>2023-01-04T01:40:27Z</time></trkpt>
<trkpt lat="31.8209" lon="34.9893">
<ele>250</ele>
<time>2023-01-04T01:40:38Z</time></trkpt>
<trkpt lat="31.82104" lon="34.98943">
<ele>249</ele>
<time>2023-01-04T01:40:42Z</time></trkpt>
<trkpt lat="31.82103" lon="34.98943">
<ele>249</ele>
<time>2023-01-04T01:40:42Z</time></trkpt>
<trkpt lat="31.82146" lon="34.98982">
<ele>242</ele>
<time>2023-01-04T01:40:53Z</time></trkpt>
<trkpt lat="31.82167" lon="34.9903">
<ele>239</ele>
<time>2023-01-04T01:41:02Z</time></trkpt>
<trkpt lat="31.82209" lon="34.9906">
<ele>237</ele>
<time>2023-01-04T01:41:12Z</time></trkpt>
<trkpt lat="31.82244" lon="34.991">
<ele>233</ele>
<time>2023-01-04T01:41:21Z</time></trkpt>
<trkpt lat="31.82257" lon="34.99141">
<ele>232</ele>
<time>2023-01-04T01:41:29Z</time></trkpt>
<trkpt lat="31.82251" lon="34.9916">
<ele>234</ele>
<time>2023-01-04T01:41:32Z</time></trkpt>
<trkpt lat="31.82246" lon="34.99185">
<ele>234</ele>
<time>2023-01-04T01:41:37Z</time></trkpt>
<trkpt lat="31.82241" lon="34.99227">
<ele>234</ele>
<time>2023-01-04T01:41:44Z</time></trkpt>
<trkpt lat="31.82238" lon="34.99261">
<ele>234</ele>
<time>2023-01-04T01:41:50Z</time></trkpt>
<trkpt lat="31.8224" lon="34.99286">
<ele>232</ele>
<time>2023-01-04T01:41:54Z</time></trkpt>
<trkpt lat="31.82252" lon="34.99327">
<ele>227</ele>
<time>2023-01-04T01:42:01Z</time></trkpt>
<trkpt lat="31.82253" lon="34.99339">
<ele>227</ele>
<time>2023-01-04T01:42:04Z</time></trkpt>
<trkpt lat="31.82251" lon="34.99348">
<ele>226</ele>
<time>2023-01-04T01:42:05Z</time></trkpt>
<trkpt lat="31.82246" lon="34.99359">
<ele>227</ele>
<time>2023-01-04T01:42:07Z</time></trkpt>
<trkpt lat="31.82239" lon="34.99369">
<ele>228</ele>
<time>2023-01-04T01:42:09Z</time></trkpt>
<trkpt lat="31.82214" lon="34.99393">
<ele>232</ele>
<time>2023-01-04T01:42:16Z</time></trkpt>
<trkpt lat="31.82183" lon="34.99441">
<ele>232</ele>
<time>2023-01-04T01:42:26Z</time></trkpt>
<trkpt lat="31.82138" lon="34.99484">
<ele>231</ele>
<time>2023-01-04T01:42:38Z</time></trkpt>
<trkpt lat="31.82122" lon="34.99494">
<ele>231</ele>
<time>2023-01-04T01:42:41Z</time></trkpt>
<trkpt lat="31.82112" lon="34.99498">
<ele>232</ele>
<time>2023-01-04T01:42:44Z</time></trkpt>
<trkpt lat="31.82058" lon="34.99507">
<ele>236</ele>
<time>2023-01-04T01:42:54Z</time></trkpt>
<trkpt lat="31.8201" lon="34.99518">
<ele>238</ele>
<time>2023-01-04T01:43:04Z</time></trkpt>
<trkpt lat="31.81936" lon="34.99537">
<ele>241</ele>
<time>2023-01-04T01:43:19Z</time></trkpt>
<trkpt lat="31.81904" lon="34.99548">
<ele>241</ele>
<time>2023-01-04T01:43:26Z</time></trkpt>
<trkpt lat="31.8189157" lon="34.9955888">
<ele>240</ele>
<time>2023-01-04T01:43:29Z</time></trkpt>
<trkpt lat="31.818809" lon="34.995698">
<ele>239</ele>
<time>2023-01-04T01:43:32Z</time></trkpt>
<trkpt lat="31.818836" lon="34.995834">
<ele>237</ele>
<time>2023-01-04T01:43:34Z</time></trkpt>
<trkpt lat="31.81891" lon="34.996035">
<ele>238</ele>
<time>2023-01-04T01:43:38Z</time></trkpt>
<trkpt lat="31.819145" lon="34.996451">
<ele>239</ele>
<time>2023-01-04T01:43:47Z</time></trkpt>
<trkpt lat="31.819191" lon="34.996656">
<ele>240</ele>
<time>2023-01-04T01:43:50Z</time></trkpt>
<trkpt lat="31.81919" lon="34.996825">
<ele>242</ele>
<time>2023-01-04T01:43:53Z</time></trkpt>
<trkpt lat="31.819131" lon="34.997025">
<ele>245</ele>
<time>2023-01-04T01:43:57Z</time></trkpt>
<trkpt lat="31.818599" lon="34.997933">
<ele>251</ele>
<time>2023-01-04T01:44:16Z</time></trkpt>
<trkpt lat="31.818515" lon="34.998167">
<ele>253</ele>
<time>2023-01-04T01:44:20Z</time></trkpt>
<trkpt lat="31.818468" lon="34.998415">
<ele>255</ele>
<time>2023-01-04T01:44:24Z</time></trkpt>
<trkpt lat="31.818473" lon="34.998881">
<ele>258</ele>
<time>2023-01-04T01:44:32Z</time></trkpt>
<trkpt lat="31.818558" lon="34.99916">
<ele>262</ele>
<time>2023-01-04T01:44:37Z</time></trkpt>
<trkpt lat="31.818558" lon="34.99916">
<ele>262</ele>
<time>2023-01-04T01:44:37Z</time></trkpt>
<trkpt lat="31.818624" lon="34.999311">
<ele>264</ele>
<time>2023-01-04T01:44:40Z</time></trkpt>
<trkpt lat="31.818689" lon="34.999402">
<ele>266</ele>
<time>2023-01-04T01:44:42Z</time></trkpt>
<trkpt lat="31.81867" lon="34.999689">
<ele>267</ele>
<time>2023-01-04T01:44:47Z</time></trkpt>
<trkpt lat="31.818632" lon="34.999809">
<ele>267</ele>
<time>2023-01-04T01:44:49Z</time></trkpt>
<trkpt lat="31.818573" lon="34.999916">
<ele>266</ele>
<time>2023-01-04T01:44:51Z</time></trkpt>
<trkpt lat="31.818416" lon="35.000091">
<ele>264</ele>
<time>2023-01-04T01:44:56Z</time></trkpt>
<trkpt lat="31.818082" lon="35.000344">
<ele>265</ele>
<time>2023-01-04T01:45:04Z</time></trkpt>
<trkpt lat="31.818082" lon="35.000344">
<ele>265</ele>
<time>2023-01-04T01:45:04Z</time></trkpt>
<trkpt lat="31.817941" lon="35.000372">
<ele>266</ele>
<time>2023-01-04T01:45:06Z</time></trkpt>
<trkpt lat="31.817802" lon="35.000338">
<ele>265</ele>
<time>2023-01-04T01:45:09Z</time></trkpt>
<trkpt lat="31.817539" lon="35.000048">
<ele>260</ele>
<time>2023-01-04T01:45:17Z</time></trkpt>
<trkpt lat="31.817384" lon="34.999939">
<ele>258</ele>
<time>2023-01-04T01:45:20Z</time></trkpt>
<trkpt lat="31.817182" lon="34.999846">
<ele>257</ele>
<time>2023-01-04T01:45:25Z</time></trkpt>
<trkpt lat="31.817041" lon="34.999811">
<ele>257</ele>
<time>2023-01-04T01:45:27Z</time></trkpt>
<trkpt lat="31.816933" lon="34.999809">
<ele>257</ele>
<time>2023-01-04T01:45:30Z</time></trkpt>
<trkpt lat="31.816686" lon="34.999865">
<ele>258</ele>
<time>2023-01-04T01:45:35Z</time></trkpt>
<trkpt lat="31.816454" lon="34.999985">
<ele>258</ele>
<time>2023-01-04T01:45:40Z</time></trkpt>
<trkpt lat="31.816334" lon="35.000078">
<ele>259</ele>
<time>2023-01-04T01:45:43Z</time></trkpt>
<trkpt lat="31.816259" lon="35.00017">
<ele>260</ele>
<time>2023-01-04T01:45:45Z</time></trkpt>
<trkpt lat="31.816072" lon="35.000482">
<ele>263</ele>
<time>2023-01-04T01:45:51Z</time></trkpt>
<trkpt lat="31.815936" lon="35.000622">
<ele>263</ele>
<time>2023-01-04T01:45:55Z</time></trkpt>
<trkpt lat="31.815772" lon="35.000712">
<ele>263</ele>
<time>2023-01-04T01:45:58Z</time></trkpt>
<trkpt lat="31.815772" lon="35.000712">
<ele>263</ele>
<time>2023-01-04T01:45:58Z</time></trkpt>
<trkpt lat="31.815666" lon="35.00073">
<ele>263</ele>
<time>2023-01-04T01:46:01Z</time></trkpt>
<trkpt lat="31.815335" lon="35.000693">
<ele>260</ele>
<time>2023-01-04T01:46:07Z</time></trkpt>
<trkpt lat="31.815127" lon="35.000693">
<ele>259</ele>
<time>2023-01-04T01:46:11Z</time></trkpt>
<trkpt lat="31.814961" lon="35.000772">
<ele>259</ele>
<time>2023-01-04T01:46:15Z</time></trkpt>
<trkpt lat="31.814562" lon="35.001139">
<ele>261</ele>
<time>2023-01-04T01:46:25Z</time></trkpt>
<trkpt lat="31.814038" lon="35.001661">
<ele>264</ele>
<time>2023-01-04T01:46:39Z</time></trkpt>
<trkpt lat="31.81386" lon="35.001807">
<ele>265</ele>
<time>2023-01-04T01:46:43Z</time></trkpt>
<trkpt lat="31.813415" lon="35.002091">
<ele>264</ele>
<time>2023-01-04T01:46:53Z</time></trkpt>
<trkpt lat="31.813331" lon="35.00217">
<ele>264</ele>
<time>2023-01-04T01:46:56Z</time></trkpt>
<trkpt lat="31.813214" lon="35.002332">
<ele>265</ele>
<time>2023-01-04T01:46:59Z</time></trkpt>
<trkpt lat="31.813135" lon="35.002522">
<ele>266</ele>
<time>2023-01-04T01:47:03Z</time></trkpt>
<trkpt lat="31.813135" lon="35.002522">
<ele>266</ele>
<time>2023-01-04T01:47:03Z</time></trkpt>
<trkpt lat="31.81307" lon="35.002854">
<ele>267</ele>
<time>2023-01-04T01:47:09Z</time></trkpt>
<trkpt lat="31.813051" lon="35.003321">
<ele>269</ele>
<time>2023-01-04T01:47:17Z</time></trkpt>
<trkpt lat="31.813068" lon="35.003447">
<ele>270</ele>
<time>2023-01-04T01:47:19Z</time></trkpt>
<trkpt lat="31.813179" lon="35.003714">
<ele>273</ele>
<time>2023-01-04T01:47:24Z</time></trkpt>
<trkpt lat="31.813213" lon="35.003835">
<ele>275</ele>
<time>2023-01-04T01:47:26Z</time></trkpt>
<trkpt lat="31.813221" lon="35.004005">
<ele>276</ele>
<time>2023-01-04T01:47:29Z</time></trkpt>
<trkpt lat="31.813206" lon="35.004174">
<ele>277</ele>
<time>2023-01-04T01:47:32Z</time></trkpt>
<trkpt lat="31.813186" lon="35.004233">
<ele>277</ele>
<time>2023-01-04T01:47:33Z</time></trkpt>
<trkpt lat="31.812967" lon="35.004542">
<ele>277</ele>
<time>2023-01-04T01:47:40Z</time></trkpt>
<trkpt lat="31.812863" lon="35.004716">
<ele>277</ele>
<time>2023-01-04T01:47:43Z</time></trkpt>
<trkpt lat="31.812744" lon="35.005118">
<ele>278</ele>
<time>2023-01-04T01:47:51Z</time></trkpt>
<trkpt lat="31.812744" lon="35.005118">
<ele>278</ele>
<time>2023-01-04T01:47:51Z</time></trkpt>
<trkpt lat="31.812479" lon="35.005675">
<ele>276</ele>
<time>2023-01-04T01:48:01Z</time></trkpt>
<trkpt lat="31.812425" lon="35.005964">
<ele>276</ele>
<time>2023-01-04T01:48:06Z</time></trkpt>
<trkpt lat="31.812368" lon="35.00684">
<ele>276</ele>
<time>2023-01-04T01:48:21Z</time></trkpt>
<trkpt lat="31.812306" lon="35.008036">
<ele>278</ele>
<time>2023-01-04T01:48:42Z</time></trkpt>
<trkpt lat="31.812298" lon="35.008587">
<ele>280</ele>
<time>2023-01-04T01:48:51Z</time></trkpt>
<trkpt lat="31.812268" lon="35.008924">
<ele>281</ele>
<time>2023-01-04T01:48:57Z</time></trkpt>
<trkpt lat="31.812268" lon="35.008924">
<ele>281</ele>
<time>2023-01-04T01:48:57Z</time></trkpt>
<trkpt lat="31.812223" lon="35.009855">
<ele>283</ele>
<time>2023-01-04T01:49:13Z</time></trkpt>
<trkpt lat="31.812143" lon="35.010484">
<ele>286</ele>
<time>2023-01-04T01:49:24Z</time></trkpt>
<trkpt lat="31.812148" lon="35.010567">
<ele>287</ele>
<time>2023-01-04T01:49:25Z</time></trkpt>
<trkpt lat="31.812088" lon="35.01071">
<ele>288</ele>
<time>2023-01-04T01:49:28Z</time></trkpt>
<trkpt lat="31.811745" lon="35.012138">
<ele>290</ele>
<time>2023-01-04T01:49:53Z</time></trkpt>
<trkpt lat="31.811496" lon="35.012965">
<ele>291</ele>
<time>2023-01-04T01:50:08Z</time></trkpt>
</trkseg>
</trk>
</gpx>